Observation data for Guadalupe Mtns Park on 01/13/2018      Previous  Date  Next       Current Mesonet Observations  Soil Data  Daily Summary Page  Observations in Plain Language
KGU1 130600Z 35004KT 08/M07 A3032 RMK A01 T00831073  RH  033%=      5-min Rain = 0
KGU1 130601Z 34005KT 08/M07 A3032 RMK A01 T00821073  RH  033%=      5-min Rain = 0
KGU1 130602Z 33005KT 08/M07 A3032 RMK A01 T00821073  RH  033%=      5-min Rain = 0
KGU1 130603Z 33007KT 08/M07 A3032 RMK A01 T00811073  RH  033%=      5-min Rain = 0
KGU1 130604Z 35008KT 08/M08 A3032 RMK A01 T00841075  RH  032%=      5-min Rain = 0
KGU1 130605Z 01008KT 09/M08 A3032 RMK A01 T00871075  RH  031%=      5-min Rain = 0
KGU1 130606Z 01006KT 09/M08 A3032 RMK A01 T00891075  RH  031%=      5-min Rain = 0
KGU1 130607Z 01006KT 09/M08 A3032 RMK A01 T00901075  RH  031%=      5-min Rain = 0
KGU1 130608Z 36006KT 09/M08 A3032 RMK A01 T00911075  RH  030%=      5-min Rain = 0
KGU1 130609Z 00006KT 09/M07 A3033 RMK A01 T00901074  RH  031%=      5-min Rain = 0
KGU1 130610Z 36007KT 09/M07 A3033 RMK A01 T00881074  RH  031%=      5-min Rain = 0
KGU1 130611Z 35006KT 09/M07 A3033 RMK A01 T00871073  RH  032%=      5-min Rain = 0
KGU1 130612Z 36005KT 09/M07 A3033 RMK A01 T00861073  RH  032%=      5-min Rain = 0
KGU1 130613Z 35004KT 09/M07 A3033 RMK A01 T00851073  RH  032%=      5-min Rain = 0
KGU1 130614Z 35005KT 08/M07 A3033 RMK A01 T00831073  RH  033%=      5-min Rain = 0
KGU1 130615Z 35005KT 08/M07 A3033 RMK A01 T00811072  RH  033%=      5-min Rain = 0
KGU1 130616Z 36004KT 08/M07 A3033 RMK A01 T00801073  RH  033%=      5-min Rain = 0
KGU1 130617Z 01005KT 08/M08 A3033 RMK A01 T00811075  RH  033%=      5-min Rain = 0
KGU1 130618Z 01004KT 08/M08 A3033 RMK A01 T00831075  RH  032%=      5-min Rain = 0
KGU1 130619Z 00004KT 08/M08 A3033 RMK A01 T00841076  RH  032%=      5-min Rain = 0
KGU1 130620Z 01004KT 09/M08 A3033 RMK A01 T00851076  RH  031%=      5-min Rain = 0
KGU1 130621Z 35004KT 09/M08 A3033 RMK A01 T00861077  RH  031%=      5-min Rain = 0
KGU1 130622Z 35005KT 09/M08 A3033 RMK A01 T00861076  RH  031%=      5-min Rain = 0
KGU1 130623Z 34005KT 09/M07 A3033 RMK A01 T00851074  RH  032%=      5-min Rain = 0
KGU1 130624Z 34005KT 08/M07 A3033 RMK A01 T00821074  RH  033%=      5-min Rain = 0
KGU1 130625Z 33004KT 08/M07 A3033 RMK A01 T00811073  RH  033%=      5-min Rain = 0
KGU1 130626Z 33004KT 08/M07 A3033 RMK A01 T00801073  RH  034%=      5-min Rain = 0
KGU1 130627Z 34004KT 08/M07 A3033 RMK A01 T00791072  RH  034%=      5-min Rain = 0
KGU1 130628Z 34003KT 08/M07 A3033 RMK A01 T00781072  RH  034%=      5-min Rain = 0
KGU1 130629Z 34004KT 08/M07 A3033 RMK A01 T00761071  RH  035%=      5-min Rain = 0
KGU1 130630Z 34005KT 07/M07 A3033 RMK A01 T00741070  RH  036%=      5-min Rain = 0
KGU1 130631Z 34005KT 07/M07 A3033 RMK A01 T00731071  RH  036%=      5-min Rain = 0
KGU1 130632Z 35003KT 08/M07 A3033 RMK A01 T00751071  RH  035%=      5-min Rain = 0
KGU1 130633Z 02002KT 07/M07 A3033 RMK A01 T00741071  RH  035%=      5-min Rain = 0
KGU1 130634Z 35001KT 07/M07 A3033 RMK A01 T00731070  RH  036%=      5-min Rain = 0
KGU1 130635Z 31002KT 07/M07 A3033 RMK A01 T00711069  RH  037%=      5-min Rain = 0
KGU1 130636Z 31004KT 07/M07 A3033 RMK A01 T00691069  RH  037%=      5-min Rain = 0
KGU1 130637Z 32005KT 07/M07 A3033 RMK A01 T00731071  RH  036%=      5-min Rain = 0
KGU1 130638Z 33005KT 08/M07 A3033 RMK A01 T00761071  RH  035%=      5-min Rain = 0
KGU1 130639Z 33004KT 08/M07 A3033 RMK A01 T00761071  RH  035%=      5-min Rain = 0
KGU1 130640Z 34005KT 08/M07 A3033 RMK A01 T00771071  RH  035%=      5-min Rain = 0
KGU1 130641Z 35005KT 08/M07 A3033 RMK A01 T00751069  RH  036%=      5-min Rain = 0
KGU1 130642Z 35005KT 07/M07 A3033 RMK A01 T00731068  RH  036%=      5-min Rain = 0
KGU1 130643Z 35002KT 07/M07 A3033 RMK A01 T00731070  RH  036%=      5-min Rain = 0
KGU1 130644Z 35003KT 07/M07 A3033 RMK A01 T00741071  RH  036%=      5-min Rain = 0
KGU1 130645Z 35003KT 08/M07 A3033 RMK A01 T00771073  RH  034%=      5-min Rain = 0
KGU1 130646Z 35003KT 08/M07 A3033 RMK A01 T00811074  RH  033%=      5-min Rain = 0
KGU1 130647Z 35004KT 08/M08 A3033 RMK A01 T00841075  RH  032%=      5-min Rain = 0
KGU1 130648Z 32002KT 09/M08 A3033 RMK A01 T00871076  RH  031%=      5-min Rain = 0
KGU1 130649Z 32002KT 09/M08 A3033 RMK A01 T00901076  RH  030%=      5-min Rain = 0
KGU1 130650Z 34003KT 09/M08 A3033 RMK A01 T00921075  RH  030%=      5-min Rain = 0
KGU1 130651Z 32002KT 09/M07 A3033 RMK A01 T00901073  RH  031%=      5-min Rain = 0
KGU1 130652Z 36002KT 09/M07 A3033 RMK A01 T00891073  RH  031%=      5-min Rain = 0
KGU1 130653Z 01002KT 09/M07 A3033 RMK A01 T00891073  RH  031%=      5-min Rain = 0
KGU1 130654Z 02001KT 09/M07 A3033 RMK A01 T00881074  RH  031%=      5-min Rain = 0
KGU1 130655Z 03002KT 09/M08 A3033 RMK A01 T00891075  RH  031%=      5-min Rain = 0
KGU1 130656Z 05002KT 09/M08 A3033 RMK A01 T00901077  RH  030%=      5-min Rain = 0
KGU1 130657Z 03002KT 09/M08 A3033 RMK A01 T00921077  RH  030%=      5-min Rain = 0
KGU1 130658Z 33002KT 09/M08 A3033 RMK A01 T00921075  RH  030%=      5-min Rain = 0
KGU1 130659Z 36002KT 09/M08 A3033 RMK A01 T00911075  RH  031%=      5-min Rain = 0
KGU1 130700Z 01004KT 09/M08 A3033 RMK A01 T00911077  RH  030%=      5-min Rain = 0
KGU1 130701Z 01004KT 09/M08 A3033 RMK A01 T00911076  RH  030%=      5-min Rain = 0
KGU1 130702Z 32001KT 09/M08 A3033 RMK A01 T00921075  RH  030%=      5-min Rain = 0
KGU1 130703Z 01003KT 09/M08 A3033 RMK A01 T00901075  RH  031%=      5-min Rain = 0
KGU1 130704Z 04003KT 09/M08 A3033 RMK A01 T00881076  RH  031%=      5-min Rain = 0
KGU1 130705Z 00004KT 09/M08 A3033 RMK A01 T00871075  RH  031%=      5-min Rain = 0
KGU1 130706Z 01004KT 08/M07 A3033 RMK A01 T00841074  RH  032%=      5-min Rain = 0
KGU1 130707Z 02006KT 08/M07 A3033 RMK A01 T00821074  RH  033%=      5-min Rain = 0
KGU1 130708Z 03007KT 08/M08 A3033 RMK A01 T00811077  RH  032%=      5-min Rain = 0
KGU1 130709Z 36009KT 09/M08 A3033 RMK A01 T00851077  RH  032%=      5-min Rain = 0
KGU1 130710Z 36006KT 09/M08 A3033 RMK A01 T00881077  RH  031%=      5-min Rain = 0
KGU1 130711Z 01004KT 09/M08 A3033 RMK A01 T00901076  RH  030%=      5-min Rain = 0
KGU1 130712Z 01004KT 09/M08 A3033 RMK A01 T00911076  RH  030%=      5-min Rain = 0
KGU1 130713Z 03004KT 09/M08 A3033 RMK A01 T00911078  RH  030%=      5-min Rain = 0
KGU1 130714Z 05005KT 09/M08 A3033 RMK A01 T00901076  RH  031%=      5-min Rain = 0
KGU1 130715Z 04006KT 09/M08 A3033 RMK A01 T00881075  RH  031%=      5-min Rain = 0
KGU1 130716Z 04007KT 09/M08 A3033 RMK A01 T00861077  RH  031%=      5-min Rain = 0
KGU1 130717Z 01006KT 09/M08 A3033 RMK A01 T00851075  RH  032%=      5-min Rain = 0
KGU1 130718Z 02007KT 08/M08 A3033 RMK A01 T00831075  RH  032%=      5-min Rain = 0
KGU1 130719Z 35009G14KT 08/M07 A3033 RMK A01 T00801074  RH  033%=      5-min Rain = 0
KGU1 130720Z 01010KT 08/M08 A3034 RMK A01 T00801075  RH  033%=      5-min Rain = 0
KGU1 130721Z 01012KT 08/M08 A3034 RMK A01 T00801075  RH  033%=      5-min Rain = 0
KGU1 130722Z 02014G20KT 08/M08 A3034 RMK A01 T00831077  RH  032%=      5-min Rain = 0
KGU1 130723Z 03011KT 09/M08 A3034 RMK A01 T00871079  RH  030%=      5-min Rain = 0
KGU1 130724Z 04008G13KT 09/M08 A3034 RMK A01 T00891078  RH  030%=      5-min Rain = 0
KGU1 130725Z 03010KT 09/M08 A3034 RMK A01 T00891077  RH  031%=      5-min Rain = 0
KGU1 130726Z 01009KT 09/M08 A3034 RMK A01 T00881077  RH  031%=      5-min Rain = 0
KGU1 130727Z 01008KT 09/M08 A3034 RMK A01 T00881077  RH  031%=      5-min Rain = 0
KGU1 130728Z 02008KT 09/M08 A3034 RMK A01 T00871077  RH  031%=      5-min Rain = 0
KGU1 130729Z 01008KT 09/M08 A3034 RMK A01 T00861076  RH  031%=      5-min Rain = 0
KGU1 130730Z 01009KT 08/M08 A3034 RMK A01 T00831076  RH  032%=      5-min Rain = 0
KGU1 130731Z 03009KT 08/M08 A3034 RMK A01 T00831077  RH  032%=      5-min Rain = 0
KGU1 130732Z 03009KT 08/M08 A3034 RMK A01 T00841078  RH  031%=      5-min Rain = 0
KGU1 130733Z 02007KT 08/M08 A3034 RMK A01 T00831077  RH  032%=      5-min Rain = 0
KGU1 130734Z 01007KT 08/M08 A3034 RMK A01 T00811077  RH  032%=      5-min Rain = 0
KGU1 130735Z 00007KT 08/M08 A3034 RMK A01 T00801077  RH  032%=      5-min Rain = 0
KGU1 130736Z 35007KT 08/M08 A3034 RMK A01 T00781077  RH  033%=      5-min Rain = 0
KGU1 130737Z 00007KT 08/M08 A3034 RMK A01 T00771077  RH  033%=      5-min Rain = 0
KGU1 130738Z 36006KT 08/M08 A3034 RMK A01 T00761077  RH  033%=      5-min Rain = 0
KGU1 130739Z 35008KT 07/M08 A3034 RMK A01 T00731076  RH  034%=      5-min Rain = 0
KGU1 130740Z 36009KT 07/M08 A3034 RMK A01 T00721076  RH  035%=      5-min Rain = 0
KGU1 130741Z 36008KT 07/M08 A3034 RMK A01 T00711076  RH  035%=      5-min Rain = 0
KGU1 130742Z 00009KT 07/M08 A3034 RMK A01 T00721077  RH  034%=      5-min Rain = 0
KGU1 130743Z 01007KT 07/M08 A3034 RMK A01 T00721077  RH  034%=      5-min Rain = 0
KGU1 130744Z 36006KT 07/M08 A3034 RMK A01 T00711076  RH  035%=      5-min Rain = 0
KGU1 130745Z 35007KT 07/M08 A3034 RMK A01 T00701077  RH  035%=      5-min Rain = 0
KGU1 130746Z 36007KT 07/M08 A3034 RMK A01 T00701077  RH  035%=      5-min Rain = 0
KGU1 130747Z 35007KT 07/M08 A3034 RMK A01 T00711077  RH  034%=      5-min Rain = 0
KGU1 130748Z 34007KT 07/M08 A3033 RMK A01 T00711078  RH  034%=      5-min Rain = 0
KGU1 130749Z 34007KT 07/M08 A3033 RMK A01 T00711078  RH  034%=      5-min Rain = 0
KGU1 130750Z 35007KT 07/M08 A3033 RMK A01 T00711078  RH  034%=      5-min Rain = 0
KGU1 130751Z 35007KT 07/M08 A3033 RMK A01 T00711078  RH  034%=      5-min Rain = 0
KGU1 130752Z 35007KT 07/M08 A3033 RMK A01 T00701079  RH  034%=      5-min Rain = 0
KGU1 130753Z 35009KT 07/M08 A3034 RMK A01 T00701081  RH  034%=      5-min Rain = 0
KGU1 130754Z 35008KT 07/M08 A3034 RMK A01 T00721083  RH  033%=      5-min Rain = 0
KGU1 130755Z 34009KT 07/M08 A3034 RMK A01 T00731083  RH  033%=      5-min Rain = 0
KGU1 130756Z 34007KT 07/M08 A3034 RMK A01 T00721083  RH  033%=      5-min Rain = 0
KGU1 130757Z 34008KT 07/M09 A3034 RMK A01 T00721086  RH  032%=      5-min Rain = 0
KGU1 130758Z 35010KT 07/M09 A3034 RMK A01 T00741087  RH  031%=      5-min Rain = 0
KGU1 130759Z 35009KT 07/M09 A3034 RMK A01 T00741088  RH  031%=      5-min Rain = 0
KGU1 130800Z 35008KT 08/M09 A3034 RMK A01 T00761088  RH  031%=      5-min Rain = 0
KGU1 130801Z 35009KT 08/M09 A3034 RMK A01 T00761089  RH  030%=      5-min Rain = 0
KGU1 130802Z 35009KT 08/M09 A3034 RMK A01 T00771091  RH  030%=      5-min Rain = 0
KGU1 130803Z 35011KT 08/M09 A3034 RMK A01 T00781092  RH  029%=      5-min Rain = 0
KGU1 130804Z 35011KT 08/M09 A3034 RMK A01 T00801093  RH  029%=      5-min Rain = 0
KGU1 130805Z 35011KT 08/M09 A3034 RMK A01 T00811094  RH  028%=      5-min Rain = 0
KGU1 130806Z 35012KT 08/M09 A3034 RMK A01 T00821094  RH  028%=      5-min Rain = 0
KGU1 130807Z 35010KT 08/M09 A3034 RMK A01 T00821094  RH  028%=      5-min Rain = 0
KGU1 130808Z 35011KT 08/M10 A3034 RMK A01 T00831095  RH  028%=      5-min Rain = 0
KGU1 130809Z 34011KT 08/M09 A3034 RMK A01 T00831094  RH  028%=      5-min Rain = 0
KGU1 130810Z 34011KT 08/M09 A3034 RMK A01 T00831094  RH  028%=      5-min Rain = 0
KGU1 130811Z 36009KT 08/M10 A3034 RMK A01 T00831095  RH  028%=      5-min Rain = 0
KGU1 130812Z 35010KT 08/M10 A3034 RMK A01 T00821095  RH  028%=      5-min Rain = 0
KGU1 130813Z 34012KT 08/M10 A3034 RMK A01 T00831096  RH  027%=      5-min Rain = 0
KGU1 130814Z 35011KT 09/M10 A3034 RMK A01 T00851097  RH  027%=      5-min Rain = 0
KGU1 130815Z 35010KT 09/M10 A3034 RMK A01 T00851097  RH  027%=      5-min Rain = 0
KGU1 130816Z 34012G17KT 09/M10 A3034 RMK A01 T00851098  RH  027%=      5-min Rain = 0
KGU1 130817Z 36011G16KT 09/M10 A3034 RMK A01 T00861099  RH  026%=      5-min Rain = 0
KGU1 130818Z 35012KT 09/M10 A3034 RMK A01 T00861102  RH  026%=      5-min Rain = 0
KGU1 130819Z 35013KT 09/M10 A3034 RMK A01 T00871103  RH  025%=      5-min Rain = 0
KGU1 130820Z 34013KT 09/M10 A3034 RMK A01 T00881104  RH  025%=      5-min Rain = 0
KGU1 130821Z 35012KT 09/M10 A3034 RMK A01 T00891102  RH  025%=      5-min Rain = 0
KGU1 130822Z 35012KT 09/M10 A3034 RMK A01 T00881102  RH  025%=      5-min Rain = 0
KGU1 130823Z 35012KT 09/M10 A3034 RMK A01 T00881103  RH  025%=      5-min Rain = 0
KGU1 130824Z 35012G18KT 09/M10 A3034 RMK A01 T00881103  RH  025%=      5-min Rain = 0
KGU1 130825Z 34010KT 09/M10 A3034 RMK A01 T00881103  RH  025%=      5-min Rain = 0
KGU1 130826Z 34012G18KT 09/M10 A3034 RMK A01 T00881103  RH  025%=      5-min Rain = 0
KGU1 130827Z 35014KT 09/M10 A3034 RMK A01 T00891103  RH  025%=      5-min Rain = 0
KGU1 130828Z 00009KT 09/M10 A3034 RMK A01 T00891102  RH  025%=      5-min Rain = 0
KGU1 130829Z 35009KT 09/M10 A3034 RMK A01 T00881101  RH  025%=      5-min Rain = 0
KGU1 130830Z 36012KT 09/M10 A3034 RMK A01 T00871101  RH  026%=      5-min Rain = 0
KGU1 130831Z 35012KT 09/M10 A3034 RMK A01 T00871101  RH  026%=      5-min Rain = 0
KGU1 130832Z 34012KT 09/M10 A3034 RMK A01 T00871102  RH  025%=      5-min Rain = 0
KGU1 130833Z 34013KT 09/M10 A3034 RMK A01 T00881102  RH  025%=      5-min Rain = 0
KGU1 130834Z 35011KT 09/M10 A3034 RMK A01 T00871101  RH  026%=      5-min Rain = 0
KGU1 130835Z 34012KT 09/M10 A3034 RMK A01 T00861101  RH  026%=      5-min Rain = 0
KGU1 130836Z 35012KT 09/M10 A3034 RMK A01 T00861102  RH  026%=      5-min Rain = 0
KGU1 130837Z 35011KT 09/M10 A3034 RMK A01 T00871102  RH  026%=      5-min Rain = 0
KGU1 130838Z 34012G18KT 09/M10 A3034 RMK A01 T00861101  RH  026%=      5-min Rain = 0
KGU1 130839Z 33014KT 09/M10 A3034 RMK A01 T00861100  RH  026%=      5-min Rain = 0
KGU1 130840Z 34011G16KT 09/M10 A3034 RMK A01 T00851100  RH  026%=      5-min Rain = 0
KGU1 130841Z 36009KT 09/M10 A3034 RMK A01 T00851101  RH  026%=      5-min Rain = 0
KGU1 130842Z 00008KT 08/M10 A3034 RMK A01 T00841101  RH  026%=      5-min Rain = 0
KGU1 130843Z 01006KT 08/M10 A3034 RMK A01 T00831100  RH  026%=      5-min Rain = 0
KGU1 130844Z 02006KT 08/M10 A3034 RMK A01 T00831101  RH  026%=      5-min Rain = 0
KGU1 130845Z 11002KT 08/M10 A3034 RMK A01 T00821095  RH  028%=      5-min Rain = 0
KGU1 130846Z 11004KT 08/M09 A3034 RMK A01 T00801089  RH  029%=      5-min Rain = 0
KGU1 130847Z 10002KT 08/M09 A3034 RMK A01 T00761089  RH  030%=      5-min Rain = 0
KGU1 130848Z 09003KT 07/M09 A3034 RMK A01 T00731090  RH  031%=      5-min Rain = 0
KGU1 130849Z 08004KT 07/M09 A3034 RMK A01 T00711090  RH  031%=      5-min Rain = 0
KGU1 130850Z 07003KT 07/M09 A3034 RMK A01 T00691092  RH  031%=      5-min Rain = 0
KGU1 130851Z 07002KT 07/M09 A3034 RMK A01 T00681091  RH  031%=      5-min Rain = 0
KGU1 130852Z 08003KT 07/M09 A3034 RMK A01 T00671091  RH  032%=      5-min Rain = 0
KGU1 130853Z 10002KT 07/M09 A3034 RMK A01 T00671091  RH  032%=      5-min Rain = 0
KGU1 130854Z 11002KT 07/M09 A3034 RMK A01 T00661091  RH  032%=      5-min Rain = 0
KGU1 130855Z 10001KT 07/M09 A3034 RMK A01 T00651092  RH  032%=      5-min Rain = 0
KGU1 130856Z 10001KT 06/M09 A3034 RMK A01 T00641092  RH  032%=      5-min Rain = 0
KGU1 130857Z 11001KT 06/M09 A3034 RMK A01 T00631093  RH  032%=      5-min Rain = 0
KGU1 130858Z 10000KT 06/M09 A3034 RMK A01 T00631094  RH  032%=      5-min Rain = 0
KGU1 130859Z 00000KT 06/M09 A3034 RMK A01 T00641094  RH  032%=      5-min Rain = 0
KGU1 130900Z 00000KT 07/M10 A3034 RMK A01 T00651095  RH  031%=      5-min Rain = 0
KGU1 130901Z 09000KT 07/M10 A3034 RMK A01 T00661096  RH  031%=      5-min Rain = 0
KGU1 130902Z 04000KT 07/M10 A3034 RMK A01 T00671097  RH  030%=      5-min Rain = 0
KGU1 130903Z 03001KT 07/M10 A3034 RMK A01 T00681097  RH  030%=      5-min Rain = 0
KGU1 130904Z 01001KT 07/M10 A3034 RMK A01 T00691096  RH  030%=      5-min Rain = 0
KGU1 130905Z 36002KT 07/M10 A3034 RMK A01 T00681096  RH  030%=      5-min Rain = 0
KGU1 130906Z 02004KT 07/M10 A3034 RMK A01 T00681097  RH  030%=      5-min Rain = 0
KGU1 130907Z 01007KT 07/M10 A3034 RMK A01 T00691098  RH  030%=      5-min Rain = 0
KGU1 130908Z 00009KT 07/M10 A3034 RMK A01 T00721099  RH  029%=      5-min Rain = 0
KGU1 130909Z 00009KT 08/M10 A3034 RMK A01 T00751099  RH  028%=      5-min Rain = 0
KGU1 130910Z 36009KT 08/M10 A3034 RMK A01 T00781100  RH  027%=      5-min Rain = 0
KGU1 130911Z 35012KT 08/M10 A3034 RMK A01 T00811101  RH  027%=      5-min Rain = 0
KGU1 130912Z 36011KT 08/M10 A3034 RMK A01 T00841100  RH  026%=      5-min Rain = 0
KGU1 130913Z 35012KT 09/M10 A3034 RMK A01 T00861100  RH  026%=      5-min Rain = 0
KGU1 130914Z 36010KT 09/M10 A3034 RMK A01 T00871100  RH  026%=      5-min Rain = 0
KGU1 130915Z 35012KT 09/M10 A3034 RMK A01 T00881100  RH  026%=      5-min Rain = 0
KGU1 130916Z 00014KT 09/M10 A3034 RMK A01 T00891102  RH  025%=      5-min Rain = 0
KGU1 130917Z 35012KT 09/M10 A3034 RMK A01 T00901102  RH  025%=      5-min Rain = 0
KGU1 130918Z 36011KT 09/M10 A3034 RMK A01 T00911102  RH  025%=      5-min Rain = 0
KGU1 130919Z 00010KT 09/M10 A3034 RMK A01 T00911103  RH  025%=      5-min Rain = 0
KGU1 130920Z 00011KT 09/M10 A3034 RMK A01 T00911103  RH  025%=      5-min Rain = 0
KGU1 130921Z 36009KT 09/M10 A3034 RMK A01 T00931104  RH  024%=      5-min Rain = 0
KGU1 130922Z 35008KT 09/M10 A3034 RMK A01 T00931103  RH  024%=      5-min Rain = 0
KGU1 130923Z 35010KT 09/M10 A3034 RMK A01 T00921103  RH  024%=      5-min Rain = 0
KGU1 130924Z 36008KT 09/M10 A3034 RMK A01 T00921102  RH  025%=      5-min Rain = 0
KGU1 130925Z 00009KT 09/M10 A3034 RMK A01 T00911102  RH  025%=      5-min Rain = 0
KGU1 130926Z 36008KT 09/M10 A3034 RMK A01 T00901102  RH  025%=      5-min Rain = 0
KGU1 130927Z 35009KT 09/M10 A3034 RMK A01 T00901101  RH  025%=      5-min Rain = 0
KGU1 130928Z 36011KT 09/M10 A3034 RMK A01 T00901102  RH  025%=      5-min Rain = 0
KGU1 130929Z 35009KT 09/M10 A3034 RMK A01 T00911102  RH  025%=      5-min Rain = 0
KGU1 130930Z 35008KT 09/M10 A3034 RMK A01 T00911102  RH  025%=      5-min Rain = 0
KGU1 130931Z 36007KT 09/M10 A3034 RMK A01 T00911102  RH  025%=      5-min Rain = 0
KGU1 130932Z 04007KT 09/M10 A3034 RMK A01 T00901102  RH  025%=      5-min Rain = 0
KGU1 130933Z 10007KT 09/M09 A3035 RMK A01 T00881092  RH  027%=      5-min Rain = 0
KGU1 130934Z 10006KT 08/M09 A3035 RMK A01 T00811085  RH  030%=      5-min Rain = 0
KGU1 130935Z 11007KT 07/M08 A3035 RMK A01 T00721084  RH  032%=      5-min Rain = 0
KGU1 130936Z 11006KT 07/M08 A3035 RMK A01 T00651084  RH  034%=      5-min Rain = 0
KGU1 130937Z 10007KT 06/M08 A3035 RMK A01 T00601082  RH  036%=      5-min Rain = 0
KGU1 130938Z 09006KT 06/M08 A3035 RMK A01 T00551081  RH  037%=      5-min Rain = 0
KGU1 130939Z 08004KT 05/M08 A3036 RMK A01 T00521081  RH  038%=      5-min Rain = 0
KGU1 130940Z 13002KT 05/M08 A3036 RMK A01 T00491081  RH  039%=      5-min Rain = 0
KGU1 130941Z 07000KT 05/M08 A3036 RMK A01 T00471081  RH  039%=      5-min Rain = 0
KGU1 130942Z 02002KT 05/M08 A3036 RMK A01 T00461081  RH  040%=      5-min Rain = 0
KGU1 130943Z 01004KT 04/M08 A3036 RMK A01 T00441081  RH  040%=      5-min Rain = 0
KGU1 130944Z 35005KT 04/M08 A3036 RMK A01 T00421080  RH  041%=      5-min Rain = 0
KGU1 130945Z 35005KT 04/M08 A3036 RMK A01 T00401079  RH  042%=      5-min Rain = 0
KGU1 130946Z 34006KT 04/M08 A3036 RMK A01 T00381079  RH  043%=      5-min Rain = 0
KGU1 130947Z 34008KT 04/M08 A3036 RMK A01 T00361078  RH  043%=      5-min Rain = 0
KGU1 130948Z 34007KT 04/M08 A3036 RMK A01 T00361078  RH  044%=      5-min Rain = 0
KGU1 130949Z 35008KT 04/M08 A3036 RMK A01 T00361079  RH  043%=      5-min Rain = 0
KGU1 130950Z 34009KT 04/M08 A3035 RMK A01 T00381079  RH  043%=      5-min Rain = 0
KGU1 130951Z 34007KT 04/M08 A3035 RMK A01 T00401080  RH  042%=      5-min Rain = 0
KGU1 130952Z 34008KT 04/M08 A3035 RMK A01 T00411081  RH  041%=      5-min Rain = 0
KGU1 130953Z 35005KT 04/M08 A3035 RMK A01 T00421081  RH  041%=      5-min Rain = 0
KGU1 130954Z 01003KT 04/M08 A3035 RMK A01 T00431081  RH  041%=      5-min Rain = 0
KGU1 130955Z 13008KT 04/M08 A3036 RMK A01 T00421077  RH  042%=      5-min Rain = 0
KGU1 130956Z 14009KT 04/M07 A3036 RMK A01 T00391073  RH  045%=      5-min Rain = 0
KGU1 130957Z 14013KT 03/M07 A3036 RMK A01 T00331069  RH  048%=      5-min Rain = 0
KGU1 130958Z 13012KT 03/M07 A3036 RMK A01 T00271069  RH  050%=      5-min Rain = 0
KGU1 130959Z 12007KT 02/M07 A3036 RMK A01 T00241070  RH  050%=      5-min Rain = 0
KGU1 131000Z 11004KT 02/M07 A3036 RMK A01 T00221072  RH  050%=      5-min Rain = 0
KGU1 131001Z 09003KT 02/M07 A3036 RMK A01 T00221073  RH  050%=      5-min Rain = 0
KGU1 131002Z 08005KT 02/M07 A3036 RMK A01 T00231074  RH  049%=      5-min Rain = 0
KGU1 131003Z 05006KT 02/M08 A3036 RMK A01 T00241076  RH  048%=      5-min Rain = 0
KGU1 131004Z 03006KT 03/M08 A3035 RMK A01 T00261077  RH  047%=      5-min Rain = 0
KGU1 131005Z 01006KT 03/M08 A3035 RMK A01 T00271076  RH  047%=      5-min Rain = 0
KGU1 131006Z 02004KT 03/M08 A3036 RMK A01 T00271076  RH  047%=      5-min Rain = 0
KGU1 131007Z 10005KT 03/M07 A3036 RMK A01 T00271073  RH  048%=      5-min Rain = 0
KGU1 131008Z 09008KT 02/M07 A3037 RMK A01 T00231070  RH  051%=      5-min Rain = 0
KGU1 131009Z 11008KT 02/M07 A3037 RMK A01 T00161069  RH  054%=      5-min Rain = 0
KGU1 131010Z 11007KT 01/M07 A3037 RMK A01 T00091069  RH  057%=      5-min Rain = 0
KGU1 131011Z 07005KT 00/M07 A3037 RMK A01 T00031070  RH  059%=      5-min Rain = 0
KGU1 131012Z 04006KT M00/M07 A3036 RMK A01 T10031072  RH  060%=      5-min Rain = 0
KGU1 131013Z 02005KT M01/M07 A3036 RMK A01 T10071073  RH  062%=      5-min Rain = 0
KGU1 131014Z 04005KT M01/M07 A3036 RMK A01 T10101073  RH  063%=      5-min Rain = 0
KGU1 131015Z 05007KT M01/M07 A3036 RMK A01 T10121073  RH  064%=      5-min Rain = 0
KGU1 131016Z 06010KT M01/M07 A3036 RMK A01 T10131073  RH  065%=      5-min Rain = 0
KGU1 131017Z 07008KT M01/M07 A3036 RMK A01 T10141072  RH  065%=      5-min Rain = 0
KGU1 131018Z 08009KT M02/M07 A3037 RMK A01 T10151072  RH  066%=      5-min Rain = 0
KGU1 131019Z 08009KT M02/M07 A3037 RMK A01 T10161073  RH  066%=      5-min Rain = 0
KGU1 131020Z 07008KT M02/M07 A3037 RMK A01 T10171073  RH  066%=      5-min Rain = 0
KGU1 131021Z 07007KT M02/M07 A3037 RMK A01 T10171073  RH  067%=      5-min Rain = 0
KGU1 131022Z 07006KT M02/M07 A3037 RMK A01 T10181073  RH  067%=      5-min Rain = 0
KGU1 131023Z 09006KT M02/M07 A3037 RMK A01 T10191073  RH  067%=      5-min Rain = 0
KGU1 131024Z 09007KT M02/M07 A3037 RMK A01 T10201073  RH  068%=      5-min Rain = 0
KGU1 131025Z 09006KT M02/M07 A3037 RMK A01 T10221073  RH  069%=      5-min Rain = 0
KGU1 131026Z 09005KT M02/M07 A3037 RMK A01 T10231073  RH  069%=      5-min Rain = 0
KGU1 131027Z 09005KT M02/M07 A3037 RMK A01 T10241074  RH  070%=      5-min Rain = 0
KGU1 131028Z 09003KT M03/M07 A3038 RMK A01 T10251074  RH  070%=      5-min Rain = 0
KGU1 131029Z 07002KT M03/M07 A3038 RMK A01 T10251074  RH  070%=      5-min Rain = 0
KGU1 131030Z 01002KT M03/M08 A3038 RMK A01 T10261075  RH  070%=      5-min Rain = 0
KGU1 131031Z 35003KT M03/M08 A3038 RMK A01 T10271075  RH  070%=      5-min Rain = 0
KGU1 131032Z 02004KT M03/M08 A3038 RMK A01 T10281076  RH  070%=      5-min Rain = 0
KGU1 131033Z 06004KT M03/M08 A3038 RMK A01 T10281075  RH  071%=      5-min Rain = 0
KGU1 131034Z 07004KT M03/M08 A3038 RMK A01 T10281075  RH  071%=      5-min Rain = 0
KGU1 131035Z 08004KT M03/M08 A3038 RMK A01 T10291075  RH  071%=      5-min Rain = 0
KGU1 131036Z 06004KT M03/M08 A3038 RMK A01 T10291075  RH  071%=      5-min Rain = 0
KGU1 131037Z 05004KT M03/M08 A3038 RMK A01 T10301076  RH  071%=      5-min Rain = 0
KGU1 131038Z 06004KT M03/M08 A3038 RMK A01 T10301076  RH  071%=      5-min Rain = 0
KGU1 131039Z 04002KT M03/M08 A3038 RMK A01 T10311077  RH  072%=      5-min Rain = 0
KGU1 131040Z 02003KT M03/M08 A3038 RMK A01 T10311077  RH  072%=      5-min Rain = 0
KGU1 131041Z 01003KT M03/M08 A3038 RMK A01 T10321077  RH  072%=      5-min Rain = 0
KGU1 131042Z 02003KT M03/M08 A3038 RMK A01 T10321077  RH  072%=      5-min Rain = 0
KGU1 131043Z 02003KT M03/M08 A3038 RMK A01 T10331077  RH  072%=      5-min Rain = 0
KGU1 131044Z 02004KT M03/M08 A3039 RMK A01 T10331077  RH  073%=      5-min Rain = 0
KGU1 131045Z 05004KT M03/M08 A3039 RMK A01 T10331077  RH  073%=      5-min Rain = 0
KGU1 131046Z 07005KT M03/M08 A3039 RMK A01 T10341077  RH  073%=      5-min Rain = 0
KGU1 131047Z 07006KT M03/M08 A3038 RMK A01 T10341077  RH  073%=      5-min Rain = 0
KGU1 131048Z 07006KT M03/M08 A3038 RMK A01 T10341077  RH  073%=      5-min Rain = 0
KGU1 131049Z 04005KT M03/M08 A3038 RMK A01 T10341077  RH  073%=      5-min Rain = 0
KGU1 131050Z 02005KT M04/M08 A3038 RMK A01 T10351078  RH  073%=      5-min Rain = 0
KGU1 131051Z 01006KT M04/M08 A3038 RMK A01 T10351078  RH  073%=      5-min Rain = 0
KGU1 131052Z 01004KT M04/M08 A3038 RMK A01 T10351077  RH  074%=      5-min Rain = 0
KGU1 131053Z 01004KT M04/M08 A3038 RMK A01 T10361078  RH  074%=      5-min Rain = 0
KGU1 131054Z 05003KT M04/M08 A3039 RMK A01 T10361078  RH  074%=      5-min Rain = 0
KGU1 131055Z 07004KT M04/M08 A3039 RMK A01 T10361078  RH  074%=      5-min Rain = 0
KGU1 131056Z 05004KT M04/M08 A3039 RMK A01 T10371079  RH  074%=      5-min Rain = 0
KGU1 131057Z 04005KT M04/M08 A3038 RMK A01 T10371079  RH  073%=      5-min Rain = 0
KGU1 131058Z 04005KT M04/M08 A3038 RMK A01 T10381080  RH  073%=      5-min Rain = 0
KGU1 131059Z 05006KT M04/M08 A3038 RMK A01 T10381080  RH  073%=      5-min Rain = 0
KGU1 131100Z 07004KT M04/M08 A3038 RMK A01 T10381080  RH  073%=      5-min Rain = 0
KGU1 131101Z 08004KT M04/M08 A3038 RMK A01 T10381080  RH  074%=      5-min Rain = 0
KGU1 131102Z 09005KT M04/M08 A3038 RMK A01 T10381080  RH  074%=      5-min Rain = 0
KGU1 131103Z 10004KT M04/M08 A3039 RMK A01 T10381080  RH  074%=      5-min Rain = 0
KGU1 131104Z 09002KT M04/M08 A3039 RMK A01 T10391080  RH  074%=      5-min Rain = 0
KGU1 131105Z 06002KT M04/M08 A3039 RMK A01 T10391080  RH  074%=      5-min Rain = 0
KGU1 131106Z 04002KT M04/M08 A3039 RMK A01 T10401080  RH  074%=      5-min Rain = 0
KGU1 131107Z 05002KT M04/M08 A3039 RMK A01 T10401081  RH  074%=      5-min Rain = 0
KGU1 131108Z 05004KT M04/M08 A3039 RMK A01 T10411082  RH  074%=      5-min Rain = 0
KGU1 131109Z 04004KT M04/M08 A3039 RMK A01 T10411082  RH  074%=      5-min Rain = 0
KGU1 131110Z 04004KT M04/M08 A3039 RMK A01 T10421082  RH  074%=      5-min Rain = 0
KGU1 131111Z 03004KT M04/M08 A3039 RMK A01 T10421083  RH  074%=      5-min Rain = 0
KGU1 131112Z 01004KT M04/M08 A3039 RMK A01 T10421083  RH  074%=      5-min Rain = 0
KGU1 131113Z 01004KT M04/M08 A3039 RMK A01 T10421083  RH  074%=      5-min Rain = 0
KGU1 131114Z 02004KT M04/M08 A3039 RMK A01 T10421083  RH  074%=      5-min Rain = 0
KGU1 131115Z 03005KT M04/M08 A3038 RMK A01 T10421083  RH  074%=      5-min Rain = 0
KGU1 131116Z 04005KT M04/M08 A3038 RMK A01 T10421084  RH  074%=      5-min Rain = 0
KGU1 131117Z 03005KT M04/M08 A3038 RMK A01 T10431084  RH  074%=      5-min Rain = 0
KGU1 131118Z 03005KT M04/M08 A3038 RMK A01 T10431084  RH  074%=      5-min Rain = 0
KGU1 131119Z 04004KT M04/M08 A3039 RMK A01 T10431084  RH  074%=      5-min Rain = 0
KGU1 131120Z 04004KT M04/M08 A3039 RMK A01 T10441084  RH  074%=      5-min Rain = 0
KGU1 131121Z 05003KT M04/M08 A3039 RMK A01 T10441084  RH  075%=      5-min Rain = 0
KGU1 131122Z 05003KT M04/M08 A3039 RMK A01 T10441084  RH  075%=      5-min Rain = 0
KGU1 131123Z 05003KT M05/M09 A3039 RMK A01 T10451085  RH  075%=      5-min Rain = 0
KGU1 131124Z 05004KT M05/M09 A3039 RMK A01 T10451085  RH  074%=      5-min Rain = 0
KGU1 131125Z 04003KT M05/M09 A3039 RMK A01 T10451085  RH  074%=      5-min Rain = 0
KGU1 131126Z 03004KT M05/M09 A3039 RMK A01 T10451085  RH  074%=      5-min Rain = 0
KGU1 131127Z 02004KT M05/M09 A3039 RMK A01 T10451085  RH  074%=      5-min Rain = 0
KGU1 131128Z 02004KT M05/M09 A3039 RMK A01 T10451085  RH  074%=      5-min Rain = 0
KGU1 131129Z 02004KT M05/M09 A3039 RMK A01 T10451085  RH  074%=      5-min Rain = 0
KGU1 131130Z 01005KT M05/M09 A3039 RMK A01 T10451085  RH  075%=      5-min Rain = 0
KGU1 131131Z 01005KT M05/M09 A3039 RMK A01 T10451085  RH  075%=      5-min Rain = 0
KGU1 131132Z 02006KT M05/M09 A3039 RMK A01 T10451085  RH  075%=      5-min Rain = 0
KGU1 131133Z 03005KT M05/M09 A3039 RMK A01 T10451085  RH  075%=      5-min Rain = 0
KGU1 131134Z 04006KT M05/M09 A3039 RMK A01 T10451085  RH  074%=      5-min Rain = 0
KGU1 131135Z 04005KT M05/M09 A3038 RMK A01 T10451085  RH  075%=      5-min Rain = 0
KGU1 131136Z 03005KT M05/M09 A3038 RMK A01 T10451085  RH  075%=      5-min Rain = 0
KGU1 131137Z 04006KT M05/M09 A3038 RMK A01 T10451085  RH  075%=      5-min Rain = 0
KGU1 131138Z 04005KT M05/M09 A3038 RMK A01 T10451085  RH  075%=      5-min Rain = 0
KGU1 131139Z 04005KT M05/M09 A3038 RMK A01 T10461085  RH  075%=      5-min Rain = 0
KGU1 131140Z 03004KT M05/M09 A3038 RMK A01 T10461085  RH  075%=      5-min Rain = 0
KGU1 131141Z 03004KT M05/M09 A3038 RMK A01 T10461085  RH  075%=      5-min Rain = 0
KGU1 131142Z 03004KT M05/M09 A3038 RMK A01 T10461085  RH  075%=      5-min Rain = 0
KGU1 131143Z 04004KT M05/M09 A3038 RMK A01 T10461085  RH  075%=      5-min Rain = 0
KGU1 131144Z 06003KT M05/M09 A3038 RMK A01 T10461085  RH  075%=      5-min Rain = 0
KGU1 131145Z 06003KT M05/M09 A3039 RMK A01 T10471085  RH  075%=      5-min Rain = 0
KGU1 131146Z 06003KT M05/M09 A3039 RMK A01 T10471086  RH  075%=      5-min Rain = 0
KGU1 131147Z 06003KT M05/M09 A3039 RMK A01 T10471086  RH  075%=      5-min Rain = 0
KGU1 131148Z 06002KT M05/M09 A3039 RMK A01 T10471086  RH  075%=      5-min Rain = 0
KGU1 131149Z 06002KT M05/M09 A3039 RMK A01 T10471087  RH  075%=      5-min Rain = 0
KGU1 131150Z 05003KT M05/M09 A3039 RMK A01 T10471087  RH  075%=      5-min Rain = 0
KGU1 131151Z 05003KT M05/M09 A3039 RMK A01 T10471088  RH  074%=      5-min Rain = 0
KGU1 131152Z 04004KT M05/M09 A3039 RMK A01 T10481088  RH  074%=      5-min Rain = 0
KGU1 131153Z 04003KT M05/M09 A3039 RMK A01 T10481088  RH  074%=      5-min Rain = 0
KGU1 131154Z 04004KT M05/M09 A3039 RMK A01 T10481087  RH  075%=      5-min Rain = 0
KGU1 131155Z 04004KT M05/M09 A3039 RMK A01 T10491087  RH  075%=      5-min Rain = 0
KGU1 131156Z 04004KT M05/M09 A3039 RMK A01 T10491087  RH  075%=      5-min Rain = 0
KGU1 131157Z 03004KT M05/M09 A3039 RMK A01 T10491088  RH  075%=      5-min Rain = 0
KGU1 131158Z 03003KT M05/M09 A3039 RMK A01 T10491088  RH  075%=      5-min Rain = 0
KGU1 131159Z 02003KT M05/M09 A3039 RMK A01 T10501088  RH  076%=      5-min Rain = 0
KGU1 131200Z 02003KT M05/M09 A3039 RMK A01 T10501088  RH  076%=      5-min Rain = 0
KGU1 131201Z 02003KT M05/M09 A304 RMK A01 T10501088  RH  075%=      5-min Rain = 0
KGU1 131202Z 02003KT M05/M09 A304 RMK A01 T10501089  RH  075%=      5-min Rain = 0
KGU1 131203Z 03002KT M05/M09 A304 RMK A01 T10501089  RH  075%=      5-min Rain = 0
KGU1 131204Z 02002KT M05/M09 A304 RMK A01 T10501089  RH  075%=      5-min Rain = 0
KGU1 131205Z 00002KT M05/M09 A304 RMK A01 T10501089  RH  075%=      5-min Rain = 0
KGU1 131206Z 35003KT M05/M09 A304 RMK A01 T10501089  RH  075%=      5-min Rain = 0
KGU1 131207Z 34004KT M05/M09 A304 RMK A01 T10501089  RH  075%=      5-min Rain = 0
KGU1 131208Z 34004KT M05/M09 A304 RMK A01 T10491090  RH  074%=      5-min Rain = 0
KGU1 131209Z 34004KT M05/M09 A304 RMK A01 T10491089  RH  074%=      5-min Rain = 0
KGU1 131210Z 34005KT M05/M09 A304 RMK A01 T10491090  RH  074%=      5-min Rain = 0
KGU1 131211Z 34004KT M05/M09 A304 RMK A01 T10491090  RH  074%=      5-min Rain = 0
KGU1 131212Z 35003KT M05/M09 A3041 RMK A01 T10491090  RH  074%=      5-min Rain = 0
KGU1 131213Z 00003KT M05/M09 A3041 RMK A01 T10491090  RH  074%=      5-min Rain = 0
KGU1 131214Z 01003KT M05/M09 A304 RMK A01 T10491090  RH  074%=      5-min Rain = 0
KGU1 131215Z 01002KT M05/M09 A304 RMK A01 T10491090  RH  074%=      5-min Rain = 0
KGU1 131216Z 01002KT M05/M09 A304 RMK A01 T10491090  RH  074%=      5-min Rain = 0
KGU1 131217Z 03002KT M05/M09 A304 RMK A01 T10491090  RH  074%=      5-min Rain = 0
KGU1 131218Z 03003KT M05/M09 A304 RMK A01 T10491090  RH  074%=      5-min Rain = 0
KGU1 131219Z 04003KT M05/M09 A304 RMK A01 T10491091  RH  074%=      5-min Rain = 0
KGU1 131220Z 02004KT M05/M09 A304 RMK A01 T10491091  RH  074%=      5-min Rain = 0
KGU1 131221Z 02004KT M05/M09 A3041 RMK A01 T10491090  RH  074%=      5-min Rain = 0
KGU1 131222Z 01004KT M05/M09 A3041 RMK A01 T10491091  RH  074%=      5-min Rain = 0
KGU1 131223Z 01004KT M05/M09 A3041 RMK A01 T10501091  RH  074%=      5-min Rain = 0
KGU1 131224Z 02003KT M05/M09 A3041 RMK A01 T10501090  RH  074%=      5-min Rain = 0
KGU1 131225Z 03003KT M05/M09 A3041 RMK A01 T10501090  RH  074%=      5-min Rain = 0
KGU1 131226Z 03003KT M05/M09 A3041 RMK A01 T10501091  RH  074%=      5-min Rain = 0
KGU1 131227Z 03004KT M05/M09 A3041 RMK A01 T10501091  RH  074%=      5-min Rain = 0
KGU1 131228Z 02004KT M05/M09 A3041 RMK A01 T10501091  RH  074%=      5-min Rain = 0
KGU1 131229Z 01004KT M05/M09 A3041 RMK A01 T10501091  RH  074%=      5-min Rain = 0
KGU1 131230Z 01004KT M05/M09 A3041 RMK A01 T10501091  RH  074%=      5-min Rain = 0
KGU1 131231Z 01005KT M05/M09 A3041 RMK A01 T10501091  RH  074%=      5-min Rain = 0
KGU1 131232Z 35005KT M05/M09 A3041 RMK A01 T10501091  RH  074%=      5-min Rain = 0
KGU1 131233Z 35005KT M05/M09 A3041 RMK A01 T10501090  RH  074%=      5-min Rain = 0
KGU1 131234Z 34004KT M05/M09 A3041 RMK A01 T10501090  RH  074%=      5-min Rain = 0
KGU1 131235Z 34005KT M05/M09 A3041 RMK A01 T10491091  RH  074%=      5-min Rain = 0
KGU1 131236Z 34005KT M05/M09 A3041 RMK A01 T10491090  RH  074%=      5-min Rain = 0
KGU1 131237Z 35005KT M05/M09 A3041 RMK A01 T10481090  RH  073%=      5-min Rain = 0
KGU1 131238Z 35005KT M05/M09 A3041 RMK A01 T10471090  RH  073%=      5-min Rain = 0
KGU1 131239Z 01006KT M05/M09 A3041 RMK A01 T10461090  RH  072%=      5-min Rain = 0
KGU1 131240Z 02005KT M05/M09 A3041 RMK A01 T10451090  RH  072%=      5-min Rain = 0
KGU1 131241Z 02005KT M04/M09 A3041 RMK A01 T10441090  RH  071%=      5-min Rain = 0
KGU1 131242Z 02005KT M04/M09 A3041 RMK A01 T10431090  RH  071%=      5-min Rain = 0
KGU1 131243Z 02005KT M04/M09 A3041 RMK A01 T10431090  RH  071%=      5-min Rain = 0
KGU1 131244Z 02004KT M04/M09 A3041 RMK A01 T10431090  RH  071%=      5-min Rain = 0
KGU1 131245Z 02004KT M04/M09 A3041 RMK A01 T10431090  RH  071%=      5-min Rain = 0
KGU1 131246Z 01005KT M04/M09 A3041 RMK A01 T10421089  RH  071%=      5-min Rain = 0
KGU1 131247Z 02005KT M04/M09 A3041 RMK A01 T10421089  RH  071%=      5-min Rain = 0
KGU1 131248Z 02005KT M04/M09 A3041 RMK A01 T10421089  RH  070%=      5-min Rain = 0
KGU1 131249Z 02004KT M04/M09 A3041 RMK A01 T10411089  RH  070%=      5-min Rain = 0
KGU1 131250Z 02004KT M04/M09 A3041 RMK A01 T10411089  RH  070%=      5-min Rain = 0
KGU1 131251Z 02004KT M04/M09 A3041 RMK A01 T10421090  RH  070%=      5-min Rain = 0
KGU1 131252Z 03003KT M04/M09 A3041 RMK A01 T10411089  RH  070%=      5-min Rain = 0
KGU1 131253Z 03003KT M04/M09 A3041 RMK A01 T10421090  RH  070%=      5-min Rain = 0
KGU1 131254Z 03003KT M04/M09 A3041 RMK A01 T10421090  RH  070%=      5-min Rain = 0
KGU1 131255Z 04003KT M04/M09 A3041 RMK A01 T10421090  RH  070%=      5-min Rain = 0
KGU1 131256Z 05003KT M04/M09 A3041 RMK A01 T10431090  RH  070%=      5-min Rain = 0
KGU1 131257Z 07003KT M04/M09 A3041 RMK A01 T10431091  RH  070%=      5-min Rain = 0
KGU1 131258Z 07002KT M04/M09 A3041 RMK A01 T10431091  RH  070%=      5-min Rain = 0
KGU1 131259Z 07002KT M04/M09 A3041 RMK A01 T10431091  RH  070%=      5-min Rain = 0
KGU1 131300Z 07002KT M04/M09 A3041 RMK A01 T10431092  RH  070%=      5-min Rain = 0
KGU1 131301Z 06002KT M04/M09 A3041 RMK A01 T10431092  RH  070%=      5-min Rain = 0
KGU1 131302Z 06002KT M04/M09 A3041 RMK A01 T10431092  RH  070%=      5-min Rain = 0
KGU1 131303Z 05002KT M04/M09 A3041 RMK A01 T10431093  RH  069%=      5-min Rain = 0
KGU1 131304Z 04001KT M04/M09 A3041 RMK A01 T10421092  RH  069%=      5-min Rain = 0
KGU1 131305Z 01002KT M04/M09 A3041 RMK A01 T10411092  RH  069%=      5-min Rain = 0
KGU1 131306Z 34003KT M04/M09 A3041 RMK A01 T10421091  RH  070%=      5-min Rain = 0
KGU1 131307Z 33005KT M04/M09 A3041 RMK A01 T10431090  RH  071%=      5-min Rain = 0
KGU1 131308Z 33005KT M04/M09 A3042 RMK A01 T10431089  RH  072%=      5-min Rain = 0
KGU1 131309Z 34004KT M04/M09 A3042 RMK A01 T10441088  RH  072%=      5-min Rain = 0
KGU1 131310Z 35003KT M05/M09 A3042 RMK A01 T10451088  RH  073%=      5-min Rain = 0
KGU1 131311Z 00003KT M05/M09 A3042 RMK A01 T10451087  RH  073%=      5-min Rain = 0
KGU1 131312Z 01002KT M05/M09 A3041 RMK A01 T10461087  RH  074%=      5-min Rain = 0
KGU1 131313Z 01002KT M05/M09 A3041 RMK A01 T10461087  RH  074%=      5-min Rain = 0
KGU1 131314Z 01002KT M05/M09 A3042 RMK A01 T10461087  RH  074%=      5-min Rain = 0
KGU1 131315Z 01002KT M05/M09 A3042 RMK A01 T10451087  RH  074%=      5-min Rain = 0
KGU1 131316Z 01002KT M04/M09 A3042 RMK A01 T10441087  RH  073%=      5-min Rain = 0
KGU1 131317Z 01002KT M04/M09 A3042 RMK A01 T10431087  RH  072%=      5-min Rain = 0
KGU1 131318Z 02002KT M04/M09 A3042 RMK A01 T10431087  RH  072%=      5-min Rain = 0
KGU1 131319Z 02002KT M04/M09 A3042 RMK A01 T10421088  RH  071%=      5-min Rain = 0
KGU1 131320Z 02002KT M04/M09 A3042 RMK A01 T10421088  RH  071%=      5-min Rain = 0
KGU1 131321Z 04002KT M04/M09 A3042 RMK A01 T10421089  RH  071%=      5-min Rain = 0
KGU1 131322Z 03002KT M04/M09 A3042 RMK A01 T10421090  RH  070%=      5-min Rain = 0
KGU1 131323Z 04001KT M04/M09 A3041 RMK A01 T10411091  RH  069%=      5-min Rain = 0
KGU1 131324Z 05002KT M04/M09 A3041 RMK A01 T10411092  RH  069%=      5-min Rain = 0
KGU1 131325Z 05002KT M04/M09 A3041 RMK A01 T10411093  RH  068%=      5-min Rain = 0
KGU1 131326Z 04002KT M04/M09 A3041 RMK A01 T10411094  RH  067%=      5-min Rain = 0
KGU1 131327Z 04002KT M04/M09 A3041 RMK A01 T10401094  RH  067%=      5-min Rain = 0
KGU1 131328Z 03003KT M04/M09 A3041 RMK A01 T10401093  RH  067%=      5-min Rain = 0
KGU1 131329Z 01003KT M04/M09 A3041 RMK A01 T10401093  RH  067%=      5-min Rain = 0
KGU1 131330Z 35003KT M04/M09 A3041 RMK A01 T10401093  RH  067%=      5-min Rain = 0
KGU1 131331Z 33003KT M04/M09 A3041 RMK A01 T10411091  RH  069%=      5-min Rain = 0
KGU1 131332Z 33003KT M04/M09 A3042 RMK A01 T10411090  RH  070%=      5-min Rain = 0
KGU1 131333Z 33004KT M04/M09 A3042 RMK A01 T10411088  RH  071%=      5-min Rain = 0
KGU1 131334Z 33004KT M04/M09 A3042 RMK A01 T10411086  RH  072%=      5-min Rain = 0
KGU1 131335Z 33005KT M04/M09 A3042 RMK A01 T10411085  RH  072%=      5-min Rain = 0
KGU1 131336Z 33004KT M04/M08 A3042 RMK A01 T10411084  RH  073%=      5-min Rain = 0
KGU1 131337Z 33004KT M04/M08 A3042 RMK A01 T10411084  RH  073%=      5-min Rain = 0
KGU1 131338Z 33004KT M04/M08 A3042 RMK A01 T10411083  RH  073%=      5-min Rain = 0
KGU1 131339Z 34003KT M04/M08 A3042 RMK A01 T10401083  RH  073%=      5-min Rain = 0
KGU1 131340Z 00003KT M04/M08 A3042 RMK A01 T10401083  RH  073%=      5-min Rain = 0
KGU1 131341Z 36003KT M04/M08 A3042 RMK A01 T10401083  RH  073%=      5-min Rain = 0
KGU1 131342Z 01003KT M04/M08 A3042 RMK A01 T10401084  RH  073%=      5-min Rain = 0
KGU1 131343Z 01003KT M04/M08 A3042 RMK A01 T10401084  RH  072%=      5-min Rain = 0
KGU1 131344Z 02003KT M04/M08 A3042 RMK A01 T10381084  RH  072%=      5-min Rain = 0
KGU1 131345Z 02003KT M04/M08 A3042 RMK A01 T10371084  RH  071%=      5-min Rain = 0
KGU1 131346Z 01004KT M04/M08 A3042 RMK A01 T10361084  RH  070%=      5-min Rain = 0
KGU1 131347Z 01005KT M04/M08 A3042 RMK A01 T10351084  RH  070%=      5-min Rain = 0
KGU1 131348Z 01005KT M04/M08 A3042 RMK A01 T10351084  RH  069%=      5-min Rain = 0
KGU1 131349Z 01005KT M03/M08 A3042 RMK A01 T10341084  RH  069%=      5-min Rain = 0
KGU1 131350Z 01005KT M03/M08 A3042 RMK A01 T10341083  RH  069%=      5-min Rain = 0
KGU1 131351Z 01005KT M03/M08 A3042 RMK A01 T10341084  RH  069%=      5-min Rain = 0
KGU1 131352Z 01005KT M03/M08 A3042 RMK A01 T10341084  RH  069%=      5-min Rain = 0
KGU1 131353Z 01005KT M03/M08 A3042 RMK A01 T10341084  RH  069%=      5-min Rain = 0
KGU1 131354Z 01005KT M03/M08 A3042 RMK A01 T10331084  RH  068%=      5-min Rain = 0
KGU1 131355Z 02004KT M03/M08 A3042 RMK A01 T10331084  RH  068%=      5-min Rain = 0
KGU1 131356Z 02004KT M03/M09 A3042 RMK A01 T10321085  RH  068%=      5-min Rain = 0
KGU1 131357Z 03004KT M03/M08 A3042 RMK A01 T10321084  RH  068%=      5-min Rain = 0
KGU1 131358Z 03004KT M03/M08 A3042 RMK A01 T10311082  RH  069%=      5-min Rain = 0
KGU1 131359Z 03004KT M03/M08 A3042 RMK A01 T10311081  RH  069%=      5-min Rain = 0
KGU1 131400Z 03004KT M03/M08 A3043 RMK A01 T10311081  RH  069%=      5-min Rain = 0
KGU1 131401Z 03004KT M03/M08 A3043 RMK A01 T10311081  RH  069%=      5-min Rain = 0
KGU1 131402Z 03003KT M03/M08 A3043 RMK A01 T10311081  RH  069%=      5-min Rain = 0
KGU1 131403Z 04004KT M03/M08 A3043 RMK A01 T10301080  RH  069%=      5-min Rain = 0
KGU1 131404Z 03003KT M03/M08 A3043 RMK A01 T10301080  RH  069%=      5-min Rain = 0
KGU1 131405Z 03003KT M03/M08 A3043 RMK A01 T10291080  RH  069%=      5-min Rain = 0
KGU1 131406Z 03003KT M03/M08 A3043 RMK A01 T10291080  RH  069%=      5-min Rain = 0
KGU1 131407Z 04003KT M03/M08 A3043 RMK A01 T10281080  RH  068%=      5-min Rain = 0
KGU1 131408Z 04002KT M03/M08 A3043 RMK A01 T10281080  RH  068%=      5-min Rain = 0
KGU1 131409Z 04003KT M03/M08 A3043 RMK A01 T10281080  RH  068%=      5-min Rain = 0
KGU1 131410Z 03003KT M03/M08 A3043 RMK A01 T10281080  RH  068%=      5-min Rain = 0
KGU1 131411Z 03004KT M03/M08 A3043 RMK A01 T10281081  RH  068%=      5-min Rain = 0
KGU1 131412Z 02005KT M03/M08 A3043 RMK A01 T10271081  RH  067%=      5-min Rain = 0
KGU1 131413Z 02005KT M03/M08 A3043 RMK A01 T10271081  RH  067%=      5-min Rain = 0
KGU1 131414Z 02005KT M03/M08 A3043 RMK A01 T10271080  RH  068%=      5-min Rain = 0
KGU1 131415Z 03005KT M03/M08 A3043 RMK A01 T10271079  RH  068%=      5-min Rain = 0
KGU1 131416Z 03005KT M03/M08 A3043 RMK A01 T10271079  RH  068%=      5-min Rain = 0
KGU1 131417Z 04005KT M03/M08 A3043 RMK A01 T10261079  RH  068%=      5-min Rain = 0
KGU1 131418Z 04005KT M03/M08 A3043 RMK A01 T10261079  RH  068%=      5-min Rain = 0
KGU1 131419Z 05005KT M03/M08 A3044 RMK A01 T10261079  RH  067%=      5-min Rain = 0
KGU1 131420Z 05005KT M03/M08 A3044 RMK A01 T10251079  RH  067%=      5-min Rain = 0
KGU1 131421Z 05004KT M03/M08 A3044 RMK A01 T10251079  RH  067%=      5-min Rain = 0
KGU1 131422Z 05003KT M03/M08 A3044 RMK A01 T10251079  RH  067%=      5-min Rain = 0
KGU1 131423Z 05003KT M02/M08 A3044 RMK A01 T10241079  RH  067%=      5-min Rain = 0
KGU1 131424Z 04003KT M02/M08 A3044 RMK A01 T10241079  RH  067%=      5-min Rain = 0
KGU1 131425Z 05003KT M02/M08 A3044 RMK A01 T10241079  RH  066%=      5-min Rain = 0
KGU1 131426Z 05003KT M02/M08 A3044 RMK A01 T10231079  RH  066%=      5-min Rain = 0
KGU1 131427Z 06003KT M02/M08 A3044 RMK A01 T10221078  RH  067%=      5-min Rain = 0
KGU1 131428Z 05003KT M02/M08 A3044 RMK A01 T10221079  RH  066%=      5-min Rain = 0
KGU1 131429Z 05003KT M02/M08 A3044 RMK A01 T10211080  RH  065%=      5-min Rain = 0
KGU1 131430Z 05003KT M02/M08 A3044 RMK A01 T10211080  RH  065%=      5-min Rain = 0
KGU1 131431Z 04004KT M02/M08 A3044 RMK A01 T10211081  RH  065%=      5-min Rain = 0
KGU1 131432Z 05003KT M02/M08 A3044 RMK A01 T10211080  RH  065%=      5-min Rain = 0
KGU1 131433Z 05003KT M02/M08 A3044 RMK A01 T10211080  RH  064%=      5-min Rain = 0
KGU1 131434Z 05003KT M02/M08 A3044 RMK A01 T10201082  RH  064%=      5-min Rain = 0
KGU1 131435Z 04003KT M02/M08 A3044 RMK A01 T10201081  RH  064%=      5-min Rain = 0
KGU1 131436Z 04003KT M02/M08 A3044 RMK A01 T10191080  RH  064%=      5-min Rain = 0
KGU1 131437Z 05003KT M02/M08 A3044 RMK A01 T10181078  RH  064%=      5-min Rain = 0
KGU1 131438Z 04003KT M02/M08 A3044 RMK A01 T10181079  RH  063%=      5-min Rain = 0
KGU1 131439Z 03003KT M02/M08 A3044 RMK A01 T10171079  RH  064%=      5-min Rain = 0
KGU1 131440Z 04003KT M02/M08 A3044 RMK A01 T10161078  RH  064%=      5-min Rain = 0
KGU1 131441Z 03003KT M02/M08 A3044 RMK A01 T10151077  RH  064%=      5-min Rain = 0
KGU1 131442Z 03004KT M02/M08 A3044 RMK A01 T10151076  RH  064%=      5-min Rain = 0
KGU1 131443Z 04003KT M01/M08 A3044 RMK A01 T10141075  RH  064%=      5-min Rain = 0
KGU1 131444Z 04004KT M01/M08 A3044 RMK A01 T10131077  RH  062%=      5-min Rain = 0
KGU1 131445Z 03004KT M01/M08 A3044 RMK A01 T10131078  RH  062%=      5-min Rain = 0
KGU1 131446Z 03003KT M01/M08 A3044 RMK A01 T10121078  RH  062%=      5-min Rain = 0
KGU1 131447Z 05003KT M01/M08 A3044 RMK A01 T10121078  RH  061%=      5-min Rain = 0
KGU1 131448Z 03004KT M01/M08 A3044 RMK A01 T10111077  RH  062%=      5-min Rain = 0
KGU1 131449Z 03003KT M01/M08 A3044 RMK A01 T10111077  RH  061%=      5-min Rain = 0
KGU1 131450Z 05003KT M01/M08 A3044 RMK A01 T10101078  RH  060%=      5-min Rain = 0
KGU1 131451Z 04004KT M01/M08 A3044 RMK A01 T10091081  RH  059%=      5-min Rain = 0
KGU1 131452Z 04005KT M01/M08 A3044 RMK A01 T10091081  RH  059%=      5-min Rain = 0
KGU1 131453Z 04005KT M01/M08 A3044 RMK A01 T10091080  RH  059%=      5-min Rain = 0
KGU1 131454Z 04003KT M01/M08 A3044 RMK A01 T10091080  RH  060%=      5-min Rain = 0
KGU1 131455Z 05003KT M01/M08 A3044 RMK A01 T10091078  RH  060%=      5-min Rain = 0
KGU1 131456Z 05004KT M01/M08 A3044 RMK A01 T10081078  RH  060%=      5-min Rain = 0
KGU1 131457Z 05004KT M01/M08 A3044 RMK A01 T10071077  RH  060%=      5-min Rain = 0
KGU1 131458Z 05003KT M01/M08 A3045 RMK A01 T10061077  RH  059%=      5-min Rain = 0
KGU1 131459Z 06004KT M01/M08 A3044 RMK A01 T10061077  RH  059%=      5-min Rain = 0
KGU1 131500Z 06004KT M01/M08 A3044 RMK A01 T10061077  RH  059%=      5-min Rain = 0
KGU1 131501Z 06005KT M01/M08 A3044 RMK A01 T10051080  RH  058%=      5-min Rain = 0
KGU1 131502Z 05005KT M01/M08 A3044 RMK A01 T10061079  RH  058%=      5-min Rain = 0
KGU1 131503Z 04005KT M01/M08 A3045 RMK A01 T10061080  RH  058%=      5-min Rain = 0
KGU1 131504Z 04005KT M01/M08 A3045 RMK A01 T10061078  RH  059%=      5-min Rain = 0
KGU1 131505Z 04005KT M01/M08 A3045 RMK A01 T10061078  RH  059%=      5-min Rain = 0
KGU1 131506Z 05005KT M01/M08 A3045 RMK A01 T10051078  RH  059%=      5-min Rain = 0
KGU1 131507Z 04006KT M01/M08 A3045 RMK A01 T10051080  RH  058%=      5-min Rain = 0
KGU1 131508Z 04005KT M01/M08 A3045 RMK A01 T10051079  RH  058%=      5-min Rain = 0
KGU1 131509Z 04006KT M00/M08 A3045 RMK A01 T10041078  RH  058%=      5-min Rain = 0
KGU1 131510Z 05004KT M00/M08 A3045 RMK A01 T10041078  RH  058%=      5-min Rain = 0
KGU1 131511Z 06005KT M00/M08 A3045 RMK A01 T10031078  RH  058%=      5-min Rain = 0
KGU1 131512Z 06004KT M00/M08 A3045 RMK A01 T10021077  RH  058%=      5-min Rain = 0
KGU1 131513Z 06004KT M00/M08 A3045 RMK A01 T10011077  RH  057%=      5-min Rain = 0
KGU1 131514Z 06004KT 00/08 A3046 RMK A01 T00-00-79  RH  056%=      5-min Rain = 0
KGU1 131515Z 05003KT 00/M08 A3046 RMK A01 T00011077  RH  057%=      5-min Rain = 0
KGU1 131516Z 04004KT 00/M08 A3046 RMK A01 T00021075  RH  057%=      5-min Rain = 0
KGU1 131517Z 05004KT 00/M07 A3046 RMK A01 T00031074  RH  057%=      5-min Rain = 0
KGU1 131518Z 05004KT 00/M08 A3045 RMK A01 T00041076  RH  055%=      5-min Rain = 0
KGU1 131519Z 05005KT 00/M08 A3045 RMK A01 T00041077  RH  055%=      5-min Rain = 0
KGU1 131520Z 05005KT 00/M08 A3045 RMK A01 T00041076  RH  056%=      5-min Rain = 0
KGU1 131521Z 04005KT 00/M08 A3045 RMK A01 T00031077  RH  056%=      5-min Rain = 0
KGU1 131522Z 06005KT 00/M07 A3045 RMK A01 T00041074  RH  056%=      5-min Rain = 0
KGU1 131523Z 06004KT 01/M07 A3045 RMK A01 T00051074  RH  056%=      5-min Rain = 0
KGU1 131524Z 07004KT 01/M08 A3045 RMK A01 T00071075  RH  055%=      5-min Rain = 0
KGU1 131525Z 08004KT 01/M07 A3045 RMK A01 T00081074  RH  055%=      5-min Rain = 0
KGU1 131526Z 08004KT 01/M07 A3046 RMK A01 T00091073  RH  055%=      5-min Rain = 0
KGU1 131527Z 08004KT 01/M08 A3046 RMK A01 T00101075  RH  054%=      5-min Rain = 0
KGU1 131528Z 08004KT 01/M07 A3046 RMK A01 T00101074  RH  054%=      5-min Rain = 0
KGU1 131529Z 08004KT 01/M08 A3046 RMK A01 T00101075  RH  054%=      5-min Rain = 0
KGU1 131530Z 08004KT 01/M08 A3046 RMK A01 T00101075  RH  054%=      5-min Rain = 0
KGU1 131531Z 08005KT 01/M08 A3046 RMK A01 T00101075  RH  054%=      5-min Rain = 0
KGU1 131532Z 08005KT 01/M08 A3046 RMK A01 T00101076  RH  053%=      5-min Rain = 0
KGU1 131533Z 08005KT 01/M08 A3046 RMK A01 T00101075  RH  054%=      5-min Rain = 0
KGU1 131534Z 07004KT 01/M08 A3046 RMK A01 T00101075  RH  053%=      5-min Rain = 0
KGU1 131535Z 08004KT 01/M07 A3046 RMK A01 T00111074  RH  054%=      5-min Rain = 0
KGU1 131536Z 06004KT 01/M07 A3046 RMK A01 T00131072  RH  054%=      5-min Rain = 0
KGU1 131537Z 05002KT 01/M08 A3046 RMK A01 T00131075  RH  052%=      5-min Rain = 0
KGU1 131538Z 04003KT 01/M07 A3046 RMK A01 T00141074  RH  052%=      5-min Rain = 0
KGU1 131539Z 02003KT 01/M08 A3046 RMK A01 T00141075  RH  052%=      5-min Rain = 0
KGU1 131540Z 02003KT 01/M08 A3046 RMK A01 T00141077  RH  051%=      5-min Rain = 0
KGU1 131541Z 01002KT 01/M08 A3046 RMK A01 T00141075  RH  052%=      5-min Rain = 0
KGU1 131542Z 01004KT 02/M08 A3046 RMK A01 T00151075  RH  052%=      5-min Rain = 0
KGU1 131543Z 35003KT 02/M07 A3046 RMK A01 T00151074  RH  052%=      5-min Rain = 0
KGU1 131544Z 00003KT 02/M07 A3046 RMK A01 T00161074  RH  052%=      5-min Rain = 0
KGU1 131545Z 03003KT 02/M07 A3047 RMK A01 T00171074  RH  051%=      5-min Rain = 0
KGU1 131546Z 04002KT 02/M07 A3047 RMK A01 T00181073  RH  052%=      5-min Rain = 0
KGU1 131547Z 04002KT 02/M07 A3047 RMK A01 T00191072  RH  051%=      5-min Rain = 0
KGU1 131548Z 04002KT 02/M07 A3047 RMK A01 T00211073  RH  050%=      5-min Rain = 0
KGU1 131549Z 04002KT 02/M07 A3047 RMK A01 T00221074  RH  050%=      5-min Rain = 0
KGU1 131550Z 05002KT 02/M07 A3047 RMK A01 T00221070  RH  051%=      5-min Rain = 0
KGU1 131551Z 03002KT 02/M07 A3047 RMK A01 T00241071  RH  050%=      5-min Rain = 0
KGU1 131552Z 06001KT 03/M07 A3047 RMK A01 T00261070  RH  050%=      5-min Rain = 0
KGU1 131553Z 10003KT 03/M07 A3047 RMK A01 T00281069  RH  049%=      5-min Rain = 0
KGU1 131554Z 11003KT 03/M07 A3047 RMK A01 T00311068  RH  049%=      5-min Rain = 0
KGU1 131555Z 08002KT 03/M07 A3047 RMK A01 T00331069  RH  048%=      5-min Rain = 0
KGU1 131556Z 06000KT 03/M07 A3047 RMK A01 T00341072  RH  046%=      5-min Rain = 0
KGU1 131557Z 35001KT 03/M07 A3047 RMK A01 T00341071  RH  046%=      5-min Rain = 0
KGU1 131558Z 03001KT 04/M07 A3047 RMK A01 T00351069  RH  047%=      5-min Rain = 0
KGU1 131559Z 04002KT 04/M07 A3047 RMK A01 T00361071  RH  046%=      5-min Rain = 0
KGU1 131600Z 06001KT 04/M07 A3047 RMK A01 T00371071  RH  046%=      5-min Rain = 0
KGU1 131601Z 07001KT 04/M07 A3047 RMK A01 T00381071  RH  045%=      5-min Rain = 0
KGU1 131602Z 06001KT 04/M07 A3047 RMK A01 T00401069  RH  045%=      5-min Rain = 0
KGU1 131603Z 05000KT 04/M07 A3047 RMK A01 T00421071  RH  044%=      5-min Rain = 0
KGU1 131604Z 04001KT 04/M07 A3047 RMK A01 T00431071  RH  044%=      5-min Rain = 0
KGU1 131605Z 03001KT 04/M07 A3047 RMK A01 T00431072  RH  043%=      5-min Rain = 0
KGU1 131606Z 02001KT 04/M07 A3047 RMK A01 T00441070  RH  044%=      5-min Rain = 0
KGU1 131607Z 03002KT 05/M07 A3047 RMK A01 T00451069  RH  044%=      5-min Rain = 0
KGU1 131608Z 05003KT 05/M07 A3047 RMK A01 T00461070  RH  043%=      5-min Rain = 0
KGU1 131609Z 09003KT 05/M07 A3047 RMK A01 T00471067  RH  044%=      5-min Rain = 0
KGU1 131610Z 09003KT 05/M07 A3047 RMK A01 T00481070  RH  043%=      5-min Rain = 0
KGU1 131611Z 08002KT 05/M07 A3047 RMK A01 T00481071  RH  042%=      5-min Rain = 0
KGU1 131612Z 08003KT 05/M07 A3047 RMK A01 T00471071  RH  042%=      5-min Rain = 0
KGU1 131613Z 08004KT 05/M07 A3047 RMK A01 T00471072  RH  042%=      5-min Rain = 0
KGU1 131614Z 07004KT 05/M07 A3047 RMK A01 T00471070  RH  043%=      5-min Rain = 0
KGU1 131615Z 07004KT 05/M07 A3047 RMK A01 T00481073  RH  042%=      5-min Rain = 0
KGU1 131616Z 06004KT 05/M07 A3047 RMK A01 T00481072  RH  042%=      5-min Rain = 0
KGU1 131617Z 06004KT 05/M07 A3047 RMK A01 T00471072  RH  042%=      5-min Rain = 0
KGU1 131618Z 04004KT 05/M07 A3047 RMK A01 T00481072  RH  042%=      5-min Rain = 0
KGU1 131619Z 06004KT 05/M07 A3048 RMK A01 T00481072  RH  042%=      5-min Rain = 0
KGU1 131620Z 06004KT 05/M07 A3048 RMK A01 T00481073  RH  042%=      5-min Rain = 0
KGU1 131621Z 05003KT 05/M07 A3048 RMK A01 T00471072  RH  042%=      5-min Rain = 0
KGU1 131622Z 05003KT 05/M07 A3048 RMK A01 T00491069  RH  043%=      5-min Rain = 0
KGU1 131623Z 08003KT 05/M07 A3048 RMK A01 T00501069  RH  042%=      5-min Rain = 0
KGU1 131624Z 08005KT 05/M07 A3048 RMK A01 T00521070  RH  041%=      5-min Rain = 0
KGU1 131625Z 07005KT 05/M07 A3048 RMK A01 T00521071  RH  041%=      5-min Rain = 0
KGU1 131626Z 07005KT 05/M07 A3048 RMK A01 T00521070  RH  041%=      5-min Rain = 0
KGU1 131627Z 04005KT 05/M07 A3048 RMK A01 T00511070  RH  042%=      5-min Rain = 0
KGU1 131628Z 04005KT 05/M07 A3048 RMK A01 T00511071  RH  041%=      5-min Rain = 0
KGU1 131629Z 03004KT 05/M07 A3048 RMK A01 T00511072  RH  041%=      5-min Rain = 0
KGU1 131630Z 01003KT 05/M07 A3048 RMK A01 T00511069  RH  042%=      5-min Rain = 0
KGU1 131631Z 03004KT 05/M07 A3048 RMK A01 T00531069  RH  042%=      5-min Rain = 0
KGU1 131632Z 03005KT 05/M07 A3048 RMK A01 T00541069  RH  041%=      5-min Rain = 0
KGU1 131633Z 02004KT 06/M07 A3048 RMK A01 T00561066  RH  041%=      5-min Rain = 0
KGU1 131634Z 02004KT 06/M07 A3048 RMK A01 T00581069  RH  040%=      5-min Rain = 0
KGU1 131635Z 04004KT 06/M07 A3048 RMK A01 T00591067  RH  040%=      5-min Rain = 0
KGU1 131636Z 04004KT 06/M07 A3048 RMK A01 T00601066  RH  040%=      5-min Rain = 0
KGU1 131637Z 04004KT 06/M07 A3048 RMK A01 T00611070  RH  039%=      5-min Rain = 0
KGU1 131638Z 06003KT 06/M07 A3048 RMK A01 T00611065  RH  041%=      5-min Rain = 0
KGU1 131639Z 07005KT 06/M07 A3048 RMK A01 T00631066  RH  040%=      5-min Rain = 0
KGU1 131640Z 07004KT 06/M06 A3048 RMK A01 T00641064  RH  040%=      5-min Rain = 0
KGU1 131641Z 07004KT 07/M07 A3048 RMK A01 T00651066  RH  039%=      5-min Rain = 0
KGU1 131642Z 07005KT 07/M07 A3048 RMK A01 T00661068  RH  038%=      5-min Rain = 0
KGU1 131643Z 07005KT 07/M07 A3048 RMK A01 T00651066  RH  039%=      5-min Rain = 0
KGU1 131644Z 07004KT 07/M07 A3048 RMK A01 T00661066  RH  039%=      5-min Rain = 0
KGU1 131645Z 06003KT 07/M07 A3048 RMK A01 T00661068  RH  038%=      5-min Rain = 0
KGU1 131646Z 06005KT 07/M07 A3048 RMK A01 T00661067  RH  038%=      5-min Rain = 0
KGU1 131647Z 06005KT 07/M07 A3048 RMK A01 T00661067  RH  038%=      5-min Rain = 0
KGU1 131648Z 07004KT 07/M07 A3048 RMK A01 T00661067  RH  038%=      5-min Rain = 0
KGU1 131649Z 07004KT 07/M07 A3048 RMK A01 T00661069  RH  038%=      5-min Rain = 0
KGU1 131650Z 07005KT 07/M07 A3048 RMK A01 T00651068  RH  039%=      5-min Rain = 0
KGU1 131651Z 07004KT 06/M07 A3048 RMK A01 T00641069  RH  038%=      5-min Rain = 0
KGU1 131652Z 06003KT 07/M07 A3048 RMK A01 T00651067  RH  039%=      5-min Rain = 0
KGU1 131653Z 06004KT 07/M07 A3048 RMK A01 T00661065  RH  039%=      5-min Rain = 0
KGU1 131654Z 06004KT 07/M07 A3048 RMK A01 T00671066  RH  038%=      5-min Rain = 0
KGU1 131655Z 06004KT 07/M07 A3048 RMK A01 T00691065  RH  038%=      5-min Rain = 0
KGU1 131656Z 07005KT 07/M07 A3048 RMK A01 T00701067  RH  038%=      5-min Rain = 0
KGU1 131657Z 05005KT 07/M07 A3048 RMK A01 T00701065  RH  038%=      5-min Rain = 0
KGU1 131658Z 06004KT 07/M07 A3048 RMK A01 T00711067  RH  037%=      5-min Rain = 0
KGU1 131659Z 06006KT 07/M07 A3048 RMK A01 T00711066  RH  038%=      5-min Rain = 0
KGU1 131700Z 06006KT 07/M07 A3048 RMK A01 T00711068  RH  037%=      5-min Rain = 0
KGU1 131701Z 07004KT 07/M07 A3048 RMK A01 T00701066  RH  038%=      5-min Rain = 0
KGU1 131702Z 08004KT 07/M07 A3048 RMK A01 T00701068  RH  037%=      5-min Rain = 0
KGU1 131703Z 07004KT 07/M07 A3048 RMK A01 T00701069  RH  037%=      5-min Rain = 0
KGU1 131704Z 07003KT 07/M07 A3048 RMK A01 T00691067  RH  038%=      5-min Rain = 0
KGU1 131705Z 08004KT 07/M07 A3048 RMK A01 T00701065  RH  038%=      5-min Rain = 0
KGU1 131706Z 06004KT 07/M07 A3048 RMK A01 T00711069  RH  037%=      5-min Rain = 0
KGU1 131707Z 07004KT 07/M07 A3048 RMK A01 T00711067  RH  037%=      5-min Rain = 0
KGU1 131708Z 06004KT 07/M07 A3048 RMK A01 T00711068  RH  037%=      5-min Rain = 0
KGU1 131709Z 06005KT 07/M07 A3048 RMK A01 T00701069  RH  037%=      5-min Rain = 0
KGU1 131710Z 07005KT 07/M07 A3048 RMK A01 T00691069  RH  037%=      5-min Rain = 0
KGU1 131711Z 07005KT 07/M07 A3048 RMK A01 T00691068  RH  037%=      5-min Rain = 0
KGU1 131712Z 07005KT 07/M07 A3048 RMK A01 T00691069  RH  037%=      5-min Rain = 0
KGU1 131713Z 07004KT 07/M07 A3048 RMK A01 T00681070  RH  037%=      5-min Rain = 0
KGU1 131714Z 08005KT 07/M07 A3048 RMK A01 T00661072  RH  037%=      5-min Rain = 0
KGU1 131715Z 10005KT 07/M07 A3048 RMK A01 T00651068  RH  039%=      5-min Rain = 0
KGU1 131716Z 09004KT 07/M07 A3048 RMK A01 T00651069  RH  038%=      5-min Rain = 0
KGU1 131717Z 08005KT 07/M07 A3048 RMK A01 T00661069  RH  038%=      5-min Rain = 0
KGU1 131718Z 08005KT 07/M07 A3048 RMK A01 T00661072  RH  037%=      5-min Rain = 0
KGU1 131719Z 09005KT 07/M07 A3048 RMK A01 T00651069  RH  038%=      5-min Rain = 0
KGU1 131720Z 08004KT 07/M07 A3048 RMK A01 T00661068  RH  038%=      5-min Rain = 0
KGU1 131721Z 06005KT 07/M07 A3048 RMK A01 T00671071  RH  037%=      5-min Rain = 0
KGU1 131722Z 07004KT 07/M07 A3048 RMK A01 T00661070  RH  038%=      5-min Rain = 0
KGU1 131723Z 08004KT 07/M07 A3048 RMK A01 T00661071  RH  037%=      5-min Rain = 0
KGU1 131724Z 06006KT 07/M07 A3048 RMK A01 T00651073  RH  037%=      5-min Rain = 0
KGU1 131725Z 06006KT 06/M07 A3048 RMK A01 T00631074  RH  037%=      5-min Rain = 0
KGU1 131726Z 05006KT 06/M07 A3048 RMK A01 T00611074  RH  037%=      5-min Rain = 0
KGU1 131727Z 06005KT 06/M08 A3048 RMK A01 T00601076  RH  037%=      5-min Rain = 0
KGU1 131728Z 08005KT 06/M08 A3048 RMK A01 T00581075  RH  038%=      5-min Rain = 0
KGU1 131729Z 08006KT 06/M08 A3048 RMK A01 T00581075  RH  038%=      5-min Rain = 0
KGU1 131730Z 08006KT 06/M08 A3048 RMK A01 T00581076  RH  038%=      5-min Rain = 0
KGU1 131731Z 08005KT 06/M08 A3048 RMK A01 T00581076  RH  038%=      5-min Rain = 0
KGU1 131732Z 08005KT 06/M08 A3048 RMK A01 T00581077  RH  038%=      5-min Rain = 0
KGU1 131733Z 09003KT 06/M08 A3048 RMK A01 T00571075  RH  039%=      5-min Rain = 0
KGU1 131734Z 07005KT 06/M08 A3048 RMK A01 T00571076  RH  038%=      5-min Rain = 0
KGU1 131735Z 07004KT 06/M08 A3048 RMK A01 T00581075  RH  038%=      5-min Rain = 0
KGU1 131736Z 05003KT 06/M08 A3048 RMK A01 T00581075  RH  038%=      5-min Rain = 0
KGU1 131737Z 06004KT 06/M08 A3048 RMK A01 T00591076  RH  038%=      5-min Rain = 0
KGU1 131738Z 05004KT 06/M08 A3048 RMK A01 T00591078  RH  037%=      5-min Rain = 0
KGU1 131739Z 07004KT 06/M08 A3048 RMK A01 T00571077  RH  038%=      5-min Rain = 0
KGU1 131740Z 07004KT 06/M08 A3048 RMK A01 T00581076  RH  038%=      5-min Rain = 0
KGU1 131741Z 08004KT 06/M08 A3048 RMK A01 T00591076  RH  038%=      5-min Rain = 0
KGU1 131742Z 08003KT 06/M08 A3048 RMK A01 T00591076  RH  038%=      5-min Rain = 0
KGU1 131743Z 07004KT 06/M08 A3048 RMK A01 T00601076  RH  037%=      5-min Rain = 0
KGU1 131744Z 07004KT 06/M08 A3047 RMK A01 T00601077  RH  037%=      5-min Rain = 0
KGU1 131745Z 07004KT 06/M07 A3047 RMK A01 T00611074  RH  038%=      5-min Rain = 0
KGU1 131746Z 08003KT 06/M08 A3047 RMK A01 T00631075  RH  037%=      5-min Rain = 0
KGU1 131747Z 07004KT 06/M08 A3047 RMK A01 T00631078  RH  036%=      5-min Rain = 0
KGU1 131748Z 07003KT 06/M07 A3047 RMK A01 T00621074  RH  037%=      5-min Rain = 0
KGU1 131749Z 05003KT 06/M07 A3047 RMK A01 T00631074  RH  037%=      5-min Rain = 0
KGU1 131750Z 07003KT 06/M08 A3047 RMK A01 T00641076  RH  036%=      5-min Rain = 0
KGU1 131751Z 09004KT 07/M07 A3047 RMK A01 T00661072  RH  037%=      5-min Rain = 0
KGU1 131752Z 08003KT 07/M08 A3047 RMK A01 T00681075  RH  036%=      5-min Rain = 0
KGU1 131753Z 08004KT 07/M08 A3047 RMK A01 T00691076  RH  035%=      5-min Rain = 0
KGU1 131754Z 09004KT 07/M08 A3047 RMK A01 T00691075  RH  035%=      5-min Rain = 0
KGU1 131755Z 10004KT 07/M08 A3047 RMK A01 T00681076  RH  035%=      5-min Rain = 0
KGU1 131756Z 09005KT 07/M08 A3047 RMK A01 T00681075  RH  036%=      5-min Rain = 0
KGU1 131757Z 07005KT 07/M07 A3047 RMK A01 T00681072  RH  037%=      5-min Rain = 0
KGU1 131758Z 07004KT 07/M07 A3047 RMK A01 T00701071  RH  036%=      5-min Rain = 0
KGU1 131759Z 08004KT 07/M07 A3047 RMK A01 T00711074  RH  035%=      5-min Rain = 0
KGU1 131800Z 07004KT 07/M07 A3047 RMK A01 T00711074  RH  035%=      5-min Rain = 0
KGU1 131801Z 09004KT 07/M07 A3047 RMK A01 T00721072  RH  036%=      5-min Rain = 0
KGU1 131802Z 10004KT 07/M08 A3047 RMK A01 T00721075  RH  035%=      5-min Rain = 0
KGU1 131803Z 10004KT 07/M07 A3047 RMK A01 T00711073  RH  035%=      5-min Rain = 0
KGU1 131804Z 10004KT 07/M07 A3047 RMK A01 T00721074  RH  035%=      5-min Rain = 0
KGU1 131805Z 09003KT 07/M08 A3047 RMK A01 T00711076  RH  035%=      5-min Rain = 0
KGU1 131806Z 07004KT 07/M07 A3047 RMK A01 T00711072  RH  036%=      5-min Rain = 0
KGU1 131807Z 09005KT 07/M07 A3047 RMK A01 T00711074  RH  035%=      5-min Rain = 0
KGU1 131808Z 09006KT 07/M07 A3047 RMK A01 T00701073  RH  036%=      5-min Rain = 0
KGU1 131809Z 09004KT 07/M07 A3047 RMK A01 T00701074  RH  036%=      5-min Rain = 0
KGU1 131810Z 10004KT 07/M07 A3047 RMK A01 T00711074  RH  035%=      5-min Rain = 0
KGU1 131811Z 11004KT 07/M07 A3047 RMK A01 T00721074  RH  035%=      5-min Rain = 0
KGU1 131812Z 06004KT 07/M07 A3047 RMK A01 T00731071  RH  036%=      5-min Rain = 0
KGU1 131813Z 05004KT 07/M07 A3047 RMK A01 T00741074  RH  034%=      5-min Rain = 0
KGU1 131814Z 08004KT 07/M07 A3047 RMK A01 T00741073  RH  035%=      5-min Rain = 0
KGU1 131815Z 10004KT 07/M07 A3047 RMK A01 T00741072  RH  035%=      5-min Rain = 0
KGU1 131816Z 08004KT 08/M07 A3047 RMK A01 T00751070  RH  035%=      5-min Rain = 0
KGU1 131817Z 06005KT 08/M07 A3047 RMK A01 T00761073  RH  034%=      5-min Rain = 0
KGU1 131818Z 06004KT 08/M07 A3047 RMK A01 T00761073  RH  034%=      5-min Rain = 0
KGU1 131819Z 06004KT 08/M07 A3047 RMK A01 T00751074  RH  034%=      5-min Rain = 0
KGU1 131820Z 07004KT 08/M07 A3047 RMK A01 T00751072  RH  035%=      5-min Rain = 0
KGU1 131821Z 07004KT 07/M08 A3047 RMK A01 T00741075  RH  034%=      5-min Rain = 0
KGU1 131822Z 06004KT 07/M07 A3047 RMK A01 T00741069  RH  036%=      5-min Rain = 0
KGU1 131823Z 08004KT 08/M07 A3047 RMK A01 T00761073  RH  034%=      5-min Rain = 0
KGU1 131824Z 07004KT 08/M07 A3047 RMK A01 T00771070  RH  035%=      5-min Rain = 0
KGU1 131825Z 06005KT 08/M08 A3047 RMK A01 T00761076  RH  034%=      5-min Rain = 0
KGU1 131826Z 07005KT 07/M08 A3047 RMK A01 T00741076  RH  034%=      5-min Rain = 0
KGU1 131827Z 07005KT 07/M08 A3047 RMK A01 T00731076  RH  034%=      5-min Rain = 0
KGU1 131828Z 08003KT 07/M07 A3046 RMK A01 T00721071  RH  036%=      5-min Rain = 0
KGU1 131829Z 05005KT 07/M07 A3046 RMK A01 T00741073  RH  035%=      5-min Rain = 0
KGU1 131830Z 08005KT 08/M07 A3046 RMK A01 T00751074  RH  034%=      5-min Rain = 0
KGU1 131831Z 07004KT 08/M08 A3046 RMK A01 T00751075  RH  034%=      5-min Rain = 0
KGU1 131832Z 09004KT 08/M08 A3046 RMK A01 T00761075  RH  034%=      5-min Rain = 0
KGU1 131833Z 09005KT 08/M07 A3046 RMK A01 T00751074  RH  034%=      5-min Rain = 0
KGU1 131834Z 08003KT 08/M07 A3046 RMK A01 T00751074  RH  034%=      5-min Rain = 0
KGU1 131835Z 08004KT 08/M08 A3046 RMK A01 T00751076  RH  034%=      5-min Rain = 0
KGU1 131836Z 08004KT 08/M08 A3046 RMK A01 T00751075  RH  034%=      5-min Rain = 0
KGU1 131837Z 08004KT 08/M08 A3046 RMK A01 T00761077  RH  033%=      5-min Rain = 0
KGU1 131838Z 08004KT 08/M07 A3046 RMK A01 T00751074  RH  034%=      5-min Rain = 0
KGU1 131839Z 08004KT 08/M07 A3046 RMK A01 T00761074  RH  034%=      5-min Rain = 0
KGU1 131840Z 09004KT 08/M08 A3046 RMK A01 T00771075  RH  034%=      5-min Rain = 0
KGU1 131841Z 09003KT 08/M07 A3046 RMK A01 T00771072  RH  034%=      5-min Rain = 0
KGU1 131842Z 08004KT 08/M07 A3046 RMK A01 T00791072  RH  034%=      5-min Rain = 0
KGU1 131843Z 08006KT 08/M08 A3045 RMK A01 T00801076  RH  033%=      5-min Rain = 0
KGU1 131844Z 10005KT 08/M08 A3045 RMK A01 T00781075  RH  033%=      5-min Rain = 0
KGU1 131845Z 12004KT 08/M07 A3045 RMK A01 T00781073  RH  034%=      5-min Rain = 0
KGU1 131846Z 11005KT 08/M07 A3045 RMK A01 T00791073  RH  033%=      5-min Rain = 0
KGU1 131847Z 09004KT 08/M07 A3045 RMK A01 T00801073  RH  033%=      5-min Rain = 0
KGU1 131848Z 08004KT 08/M07 A3045 RMK A01 T00811074  RH  033%=      5-min Rain = 0
KGU1 131849Z 10005KT 08/M08 A3045 RMK A01 T00811075  RH  033%=      5-min Rain = 0
KGU1 131850Z 11006KT 08/M08 A3045 RMK A01 T00801076  RH  033%=      5-min Rain = 0
KGU1 131851Z 12005KT 08/M08 A3045 RMK A01 T00781077  RH  033%=      5-min Rain = 0
KGU1 131852Z 12004KT 08/M07 A3045 RMK A01 T00781073  RH  034%=      5-min Rain = 0
KGU1 131853Z 10004KT 08/M07 A3045 RMK A01 T00801074  RH  033%=      5-min Rain = 0
KGU1 131854Z 11004KT 08/M07 A3045 RMK A01 T00811074  RH  033%=      5-min Rain = 0
KGU1 131855Z 10005KT 08/M08 A3045 RMK A01 T00811076  RH  032%=      5-min Rain = 0
KGU1 131856Z 11003KT 08/M08 A3045 RMK A01 T00801075  RH  033%=      5-min Rain = 0
KGU1 131857Z 11002KT 08/M08 A3044 RMK A01 T00801075  RH  033%=      5-min Rain = 0
KGU1 131858Z 10003KT 08/M07 A3044 RMK A01 T00821074  RH  033%=      5-min Rain = 0
KGU1 131859Z 11004KT 08/M07 A3044 RMK A01 T00831074  RH  032%=      5-min Rain = 0
KGU1 131900Z 13003KT 08/M07 A3044 RMK A01 T00831073  RH  033%=      5-min Rain = 0
KGU1 131901Z 11004KT 09/M07 A3044 RMK A01 T00851073  RH  032%=      5-min Rain = 0
KGU1 131902Z 11005KT 09/M07 A3044 RMK A01 T00851073  RH  032%=      5-min Rain = 0
KGU1 131903Z 11005KT 08/M07 A3044 RMK A01 T00841074  RH  032%=      5-min Rain = 0
KGU1 131904Z 10004KT 08/M08 A3044 RMK A01 T00841076  RH  032%=      5-min Rain = 0
KGU1 131905Z 10004KT 08/M07 A3044 RMK A01 T00821073  RH  033%=      5-min Rain = 0
KGU1 131906Z 11005KT 08/M07 A3044 RMK A01 T00841072  RH  033%=      5-min Rain = 0
KGU1 131907Z 11004KT 09/M07 A3044 RMK A01 T00851074  RH  032%=      5-min Rain = 0
KGU1 131908Z 11003KT 08/M07 A3044 RMK A01 T00841074  RH  032%=      5-min Rain = 0
KGU1 131909Z 12004KT 09/M07 A3044 RMK A01 T00851072  RH  032%=      5-min Rain = 0
KGU1 131910Z 14001KT 08/M07 A3044 RMK A01 T00841072  RH  033%=      5-min Rain = 0
KGU1 131911Z 12001KT 08/M07 A3044 RMK A01 T00841071  RH  033%=      5-min Rain = 0
KGU1 131912Z 13004KT 09/M07 A3043 RMK A01 T00861071  RH  033%=      5-min Rain = 0
KGU1 131913Z 14004KT 09/M07 A3043 RMK A01 T00861070  RH  033%=      5-min Rain = 0
KGU1 131914Z 16003KT 09/M07 A3043 RMK A01 T00861070  RH  033%=      5-min Rain = 0
KGU1 131915Z 15004KT 09/M07 A3043 RMK A01 T00871069  RH  033%=      5-min Rain = 0
KGU1 131916Z 13003KT 09/M07 A3043 RMK A01 T00881071  RH  032%=      5-min Rain = 0
KGU1 131917Z 10004KT 09/M07 A3043 RMK A01 T00881070  RH  032%=      5-min Rain = 0
KGU1 131918Z 10004KT 09/M07 A3043 RMK A01 T00871070  RH  033%=      5-min Rain = 0
KGU1 131919Z 13006KT 09/M07 A3043 RMK A01 T00861068  RH  033%=      5-min Rain = 0
KGU1 131920Z 15004KT 09/M07 A3043 RMK A01 T00861070  RH  033%=      5-min Rain = 0
KGU1 131921Z 13002KT 09/M07 A3043 RMK A01 T00861067  RH  034%=      5-min Rain = 0
KGU1 131922Z 15003KT 09/M07 A3043 RMK A01 T00881067  RH  033%=      5-min Rain = 0
KGU1 131923Z 17004KT 09/M07 A3043 RMK A01 T00881069  RH  032%=      5-min Rain = 0
KGU1 131924Z 14005KT 09/M07 A3043 RMK A01 T00891068  RH  033%=      5-min Rain = 0
KGU1 131925Z 14005KT 09/M07 A3042 RMK A01 T00891069  RH  032%=      5-min Rain = 0
KGU1 131926Z 14005KT 09/M07 A3042 RMK A01 T00881068  RH  033%=      5-min Rain = 0
KGU1 131927Z 13004KT 09/M07 A3042 RMK A01 T00881068  RH  033%=      5-min Rain = 0
KGU1 131928Z 14003KT 09/M07 A3042 RMK A01 T00881071  RH  032%=      5-min Rain = 0
KGU1 131929Z 14006KT 09/M07 A3042 RMK A01 T00881068  RH  033%=      5-min Rain = 0
KGU1 131930Z 13004KT 09/M07 A3042 RMK A01 T00881068  RH  033%=      5-min Rain = 0
KGU1 131931Z 14004KT 09/M07 A3042 RMK A01 T00891070  RH  032%=      5-min Rain = 0
KGU1 131932Z 12004KT 09/M07 A3042 RMK A01 T00891069  RH  032%=      5-min Rain = 0
KGU1 131933Z 14004KT 09/M07 A3042 RMK A01 T00891067  RH  033%=      5-min Rain = 0
KGU1 131934Z 18004KT 09/M07 A3042 RMK A01 T00901068  RH  032%=      5-min Rain = 0
KGU1 131935Z 19003KT 09/M07 A3042 RMK A01 T00911070  RH  032%=      5-min Rain = 0
KGU1 131936Z 17001KT 09/M07 A3041 RMK A01 T00911068  RH  032%=      5-min Rain = 0
KGU1 131937Z 17002KT 09/M07 A3041 RMK A01 T00921066  RH  032%=      5-min Rain = 0
KGU1 131938Z 19002KT 09/M07 A3041 RMK A01 T00941070  RH  031%=      5-min Rain = 0
KGU1 131939Z 24002KT 09/M07 A3041 RMK A01 T00931071  RH  031%=      5-min Rain = 0
KGU1 131940Z 25001KT 09/M07 A3041 RMK A01 T00921070  RH  031%=      5-min Rain = 0
KGU1 131941Z 12002KT 09/M07 A3041 RMK A01 T00941069  RH  031%=      5-min Rain = 0
KGU1 131942Z 14004KT 10/M07 A3041 RMK A01 T00951068  RH  031%=      5-min Rain = 0
KGU1 131943Z 13003KT 10/M07 A3041 RMK A01 T00961068  RH  031%=      5-min Rain = 0
KGU1 131944Z 13004KT 10/M07 A3041 RMK A01 T00951067  RH  031%=      5-min Rain = 0
KGU1 131945Z 17004KT 10/M07 A3041 RMK A01 T00951068  RH  031%=      5-min Rain = 0
KGU1 131946Z 16004KT 09/M07 A3041 RMK A01 T00941068  RH  032%=      5-min Rain = 0
KGU1 131947Z 15005KT 10/M07 A3041 RMK A01 T00951066  RH  032%=      5-min Rain = 0
KGU1 131948Z 14004KT 10/M07 A3041 RMK A01 T00961067  RH  031%=      5-min Rain = 0
KGU1 131949Z 14004KT 10/M07 A3041 RMK A01 T00961069  RH  031%=      5-min Rain = 0
KGU1 131950Z 17001KT 09/M07 A3041 RMK A01 T00941070  RH  031%=      5-min Rain = 0
KGU1 131951Z 14005KT 09/M07 A3041 RMK A01 T00941066  RH  032%=      5-min Rain = 0
KGU1 131952Z 12006KT 10/M07 A3041 RMK A01 T00961067  RH  031%=      5-min Rain = 0
KGU1 131953Z 12006KT 10/M07 A3041 RMK A01 T00961068  RH  031%=      5-min Rain = 0
KGU1 131954Z 13006KT 10/M07 A304 RMK A01 T00951066  RH  032%=      5-min Rain = 0
KGU1 131955Z 13005KT 10/M07 A304 RMK A01 T00951067  RH  031%=      5-min Rain = 0
KGU1 131956Z 12005KT 10/M07 A304 RMK A01 T00951067  RH  031%=      5-min Rain = 0
KGU1 131957Z 14006KT 10/M07 A304 RMK A01 T00961068  RH  031%=      5-min Rain = 0
KGU1 131958Z 13005KT 09/M07 A304 RMK A01 T00941069  RH  031%=      5-min Rain = 0
KGU1 131959Z 13007KT 09/M07 A304 RMK A01 T00931068  RH  032%=      5-min Rain = 0
KGU1 132000Z 15005KT 09/M07 A304 RMK A01 T00921068  RH  032%=      5-min Rain = 0
KGU1 132001Z 11006KT 09/M07 A304 RMK A01 T00931066  RH  032%=      5-min Rain = 0
KGU1 132002Z 13007KT 09/M07 A304 RMK A01 T00941067  RH  032%=      5-min Rain = 0
KGU1 132003Z 13007KT 10/M07 A304 RMK A01 T00951067  RH  032%=      5-min Rain = 0
KGU1 132004Z 14006KT 09/M07 A304 RMK A01 T00941070  RH  031%=      5-min Rain = 0
KGU1 132005Z 12005KT 09/M06 A304 RMK A01 T00931064  RH  033%=      5-min Rain = 0
KGU1 132006Z 11006KT 10/M07 A304 RMK A01 T00951067  RH  031%=      5-min Rain = 0
KGU1 132007Z 12006KT 10/M07 A304 RMK A01 T00961067  RH  031%=      5-min Rain = 0
KGU1 132008Z 14006KT 10/M07 A304 RMK A01 T00961065  RH  032%=      5-min Rain = 0
KGU1 132009Z 14007KT 10/M07 A304 RMK A01 T00971068  RH  031%=      5-min Rain = 0
KGU1 132010Z 13006KT 10/M07 A304 RMK A01 T00961069  RH  031%=      5-min Rain = 0
KGU1 132011Z 13006KT 09/M07 A304 RMK A01 T00941070  RH  031%=      5-min Rain = 0
KGU1 132012Z 10007KT 09/M07 A3039 RMK A01 T00911071  RH  031%=      5-min Rain = 0
KGU1 132013Z 13006KT 09/M07 A3039 RMK A01 T00891069  RH  032%=      5-min Rain = 0
KGU1 132014Z 14007KT 09/M07 A3039 RMK A01 T00901069  RH  032%=      5-min Rain = 0
KGU1 132015Z 15007KT 09/M07 A3039 RMK A01 T00921068  RH  032%=      5-min Rain = 0
KGU1 132016Z 13004KT 09/M07 A3039 RMK A01 T00921070  RH  031%=      5-min Rain = 0
KGU1 132017Z 12004KT 09/M07 A3039 RMK A01 T00931066  RH  032%=      5-min Rain = 0
KGU1 132018Z 12005KT 10/M07 A3039 RMK A01 T00951066  RH  032%=      5-min Rain = 0
KGU1 132019Z 14007KT 10/M07 A3039 RMK A01 T00971067  RH  031%=      5-min Rain = 0
KGU1 132020Z 14004KT 10/M07 A3039 RMK A01 T00981066  RH  031%=      5-min Rain = 0
KGU1 132021Z 13007KT 10/M07 A3039 RMK A01 T00981069  RH  031%=      5-min Rain = 0
KGU1 132022Z 12005KT 10/M07 A3039 RMK A01 T00971068  RH  031%=      5-min Rain = 0
KGU1 132023Z 14005KT 10/M07 A3039 RMK A01 T00971067  RH  031%=      5-min Rain = 0
KGU1 132024Z 15006KT 10/M07 A3039 RMK A01 T00971069  RH  031%=      5-min Rain = 0
KGU1 132025Z 14005KT 10/M07 A3039 RMK A01 T00971066  RH  031%=      5-min Rain = 0
KGU1 132026Z 15006KT 10/M07 A3039 RMK A01 T00981067  RH  031%=      5-min Rain = 0
KGU1 132027Z 15007KT 10/M07 A3039 RMK A01 T00981066  RH  031%=      5-min Rain = 0
KGU1 132028Z 15006KT 10/M07 A3039 RMK A01 T00981067  RH  031%=      5-min Rain = 0
KGU1 132029Z 15005KT 10/M07 A3039 RMK A01 T00981066  RH  031%=      5-min Rain = 0
KGU1 132030Z 14005KT 10/M07 A3039 RMK A01 T00991068  RH  030%=      5-min Rain = 0
KGU1 132031Z 13004KT 10/M07 A3039 RMK A01 T00991067  RH  031%=      5-min Rain = 0
KGU1 132032Z 14006KT 10/M07 A3039 RMK A01 T00991067  RH  031%=      5-min Rain = 0
KGU1 132033Z 13007KT 10/M07 A3039 RMK A01 T01001068  RH  030%=      5-min Rain = 0
KGU1 132034Z 13007KT 10/M07 A3039 RMK A01 T00981068  RH  031%=      5-min Rain = 0
KGU1 132035Z 14005KT 10/M07 A3039 RMK A01 T00981068  RH  031%=      5-min Rain = 0
KGU1 132036Z 14005KT 10/M07 A3039 RMK A01 T00971070  RH  030%=      5-min Rain = 0
KGU1 132037Z 14005KT 10/M07 A3039 RMK A01 T00971069  RH  031%=      5-min Rain = 0
KGU1 132038Z 14006KT 10/M07 A3039 RMK A01 T00971069  RH  031%=      5-min Rain = 0
KGU1 132039Z 13005KT 10/M07 A3039 RMK A01 T00971067  RH  031%=      5-min Rain = 0
KGU1 132040Z 12005KT 10/M07 A3039 RMK A01 T00991068  RH  031%=      5-min Rain = 0
KGU1 132041Z 14006KT 10/M07 A3039 RMK A01 T00991069  RH  030%=      5-min Rain = 0
KGU1 132042Z 14006KT 10/M07 A3039 RMK A01 T00981069  RH  030%=      5-min Rain = 0
KGU1 132043Z 15006KT 10/M07 A3039 RMK A01 T00981068  RH  031%=      5-min Rain = 0
KGU1 132044Z 14004KT 10/M07 A3039 RMK A01 T00981070  RH  030%=      5-min Rain = 0
KGU1 132045Z 11003KT 10/M07 A3039 RMK A01 T00971071  RH  030%=      5-min Rain = 0
KGU1 132046Z 11003KT 10/M07 A3038 RMK A01 T00971068  RH  031%=      5-min Rain = 0
KGU1 132047Z 13003KT 10/M07 A3038 RMK A01 T00981067  RH  031%=      5-min Rain = 0
KGU1 132048Z 11005KT 10/M07 A3038 RMK A01 T01001068  RH  030%=      5-min Rain = 0
KGU1 132049Z 13004KT 10/M07 A3038 RMK A01 T01011067  RH  030%=      5-min Rain = 0
KGU1 132050Z 12007KT 10/M07 A3038 RMK A01 T01021068  RH  030%=      5-min Rain = 0
KGU1 132051Z 10007KT 10/M07 A3038 RMK A01 T01011070  RH  030%=      5-min Rain = 0
KGU1 132052Z 12008KT 10/M07 A3038 RMK A01 T00991070  RH  030%=      5-min Rain = 0
KGU1 132053Z 11007KT 10/M07 A3038 RMK A01 T00991072  RH  030%=      5-min Rain = 0
KGU1 132054Z 10008KT 10/M07 A3038 RMK A01 T00961072  RH  030%=      5-min Rain = 0
KGU1 132055Z 10007KT 09/M07 A3038 RMK A01 T00941073  RH  030%=      5-min Rain = 0
KGU1 132056Z 11007KT 09/M07 A3038 RMK A01 T00931071  RH  031%=      5-min Rain = 0
KGU1 132057Z 11005KT 09/M07 A3038 RMK A01 T00941072  RH  031%=      5-min Rain = 0
KGU1 132058Z 10006KT 10/M07 A3038 RMK A01 T00951071  RH  031%=      5-min Rain = 0
KGU1 132059Z 13005KT 10/M07 A3038 RMK A01 T00951071  RH  031%=      5-min Rain = 0
KGU1 132100Z 13007KT 10/M07 A3038 RMK A01 T00961072  RH  030%=      5-min Rain = 0
KGU1 132101Z 11003KT 10/M07 A3038 RMK A01 T00951073  RH  030%=      5-min Rain = 0
KGU1 132102Z 09004KT 10/M07 A3038 RMK A01 T00951072  RH  030%=      5-min Rain = 0
KGU1 132103Z 10005KT 09/M07 A3038 RMK A01 T00941072  RH  030%=      5-min Rain = 0
KGU1 132104Z 10006KT 09/M07 A3038 RMK A01 T00941074  RH  030%=      5-min Rain = 0
KGU1 132105Z 11006KT 09/M07 A3038 RMK A01 T00931071  RH  031%=      5-min Rain = 0
KGU1 132106Z 10007KT 09/M07 A3038 RMK A01 T00931073  RH  030%=      5-min Rain = 0
KGU1 132107Z 09006KT 09/M07 A3038 RMK A01 T00931072  RH  031%=      5-min Rain = 0
KGU1 132108Z 14006KT 09/M07 A3038 RMK A01 T00931072  RH  031%=      5-min Rain = 0
KGU1 132109Z 11004KT 09/M07 A3038 RMK A01 T00941070  RH  031%=      5-min Rain = 0
KGU1 132110Z 14005KT 10/M07 A3038 RMK A01 T00961071  RH  030%=      5-min Rain = 0
KGU1 132111Z 14004KT 10/M07 A3038 RMK A01 T00961072  RH  030%=      5-min Rain = 0
KGU1 132112Z 15003KT 10/M07 A3038 RMK A01 T00961073  RH  030%=      5-min Rain = 0
KGU1 132113Z 14001KT 10/M07 A3038 RMK A01 T00951073  RH  030%=      5-min Rain = 0
KGU1 132114Z 12004KT 10/M07 A3038 RMK A01 T00951073  RH  030%=      5-min Rain = 0
KGU1 132115Z 13003KT 10/M08 A3038 RMK A01 T00951075  RH  030%=      5-min Rain = 0
KGU1 132116Z 10003KT 10/M07 A3038 RMK A01 T00951072  RH  030%=      5-min Rain = 0
KGU1 132117Z 12002KT 10/M07 A3038 RMK A01 T00951074  RH  030%=      5-min Rain = 0
KGU1 132118Z 10004KT 10/M07 A3038 RMK A01 T00961072  RH  030%=      5-min Rain = 0
KGU1 132119Z 11006KT 10/M07 A3037 RMK A01 T00951071  RH  030%=      5-min Rain = 0
KGU1 132120Z 16005KT 10/M07 A3038 RMK A01 T00961070  RH  031%=      5-min Rain = 0
KGU1 132121Z 17004KT 10/M07 A3037 RMK A01 T00971071  RH  030%=      5-min Rain = 0
KGU1 132122Z 14003KT 10/M07 A3037 RMK A01 T00971070  RH  030%=      5-min Rain = 0
KGU1 132123Z 14004KT 10/M07 A3037 RMK A01 T00981072  RH  030%=      5-min Rain = 0
KGU1 132124Z 13004KT 10/M07 A3037 RMK A01 T00981072  RH  030%=      5-min Rain = 0
KGU1 132125Z 13005KT 10/M07 A3037 RMK A01 T00981073  RH  030%=      5-min Rain = 0
KGU1 132126Z 14005KT 10/M07 A3037 RMK A01 T00971071  RH  030%=      5-min Rain = 0
KGU1 132127Z 15003KT 10/M07 A3037 RMK A01 T00961074  RH  030%=      5-min Rain = 0
KGU1 132128Z 14003KT 10/M08 A3037 RMK A01 T00951075  RH  030%=      5-min Rain = 0
KGU1 132129Z 14002KT 10/M07 A3037 RMK A01 T00951073  RH  030%=      5-min Rain = 0
KGU1 132130Z 14004KT 10/M07 A3037 RMK A01 T00951074  RH  030%=      5-min Rain = 0
KGU1 132131Z 15003KT 10/M07 A3037 RMK A01 T00951070  RH  031%=      5-min Rain = 0
KGU1 132132Z 13004KT 10/M07 A3037 RMK A01 T00971070  RH  030%=      5-min Rain = 0
KGU1 132133Z 13003KT 10/M07 A3037 RMK A01 T00991072  RH  030%=      5-min Rain = 0
KGU1 132134Z 14003KT 10/M07 A3037 RMK A01 T00991073  RH  029%=      5-min Rain = 0
KGU1 132135Z 12004KT 10/M07 A3037 RMK A01 T00991072  RH  030%=      5-min Rain = 0
KGU1 132136Z 10003KT 10/M07 A3037 RMK A01 T00991073  RH  029%=      5-min Rain = 0
KGU1 132137Z 12002KT 10/M07 A3037 RMK A01 T00981073  RH  030%=      5-min Rain = 0
KGU1 132138Z 13004KT 10/M07 A3037 RMK A01 T00981069  RH  031%=      5-min Rain = 0
KGU1 132139Z 15006KT 10/M07 A3037 RMK A01 T01001069  RH  030%=      5-min Rain = 0
KGU1 132140Z 16004KT 10/M07 A3037 RMK A01 T01001071  RH  030%=      5-min Rain = 0
KGU1 132141Z 14005KT 10/M07 A3037 RMK A01 T01011071  RH  029%=      5-min Rain = 0
KGU1 132142Z 14004KT 10/M07 A3037 RMK A01 T01001072  RH  029%=      5-min Rain = 0
KGU1 132143Z 13005KT 10/M07 A3037 RMK A01 T00991072  RH  030%=      5-min Rain = 0
KGU1 132144Z 13006KT 10/M07 A3036 RMK A01 T00981072  RH  030%=      5-min Rain = 0
KGU1 132145Z 12005KT 10/M07 A3036 RMK A01 T00971072  RH  030%=      5-min Rain = 0
KGU1 132146Z 12005KT 10/M07 A3036 RMK A01 T00971072  RH  030%=      5-min Rain = 0
KGU1 132147Z 14003KT 10/M07 A3036 RMK A01 T00971071  RH  030%=      5-min Rain = 0
KGU1 132148Z 15005KT 10/M07 A3036 RMK A01 T00981070  RH  030%=      5-min Rain = 0
KGU1 132149Z 15005KT 10/M07 A3036 RMK A01 T00991069  RH  030%=      5-min Rain = 0
KGU1 132150Z 15005KT 10/M07 A3036 RMK A01 T01001070  RH  030%=      5-min Rain = 0
KGU1 132151Z 18006KT 10/M07 A3036 RMK A01 T01011070  RH  030%=      5-min Rain = 0
KGU1 132152Z 15005KT 10/M07 A3036 RMK A01 T01011069  RH  030%=      5-min Rain = 0
KGU1 132153Z 16006KT 10/M07 A3036 RMK A01 T01021069  RH  030%=      5-min Rain = 0
KGU1 132154Z 16006KT 10/M07 A3036 RMK A01 T01031067  RH  030%=      5-min Rain = 0
KGU1 132155Z 16007KT 10/M07 A3036 RMK A01 T01021070  RH  029%=      5-min Rain = 0
KGU1 132156Z 15006KT 10/M07 A3036 RMK A01 T01011070  RH  030%=      5-min Rain = 0
KGU1 132157Z 14007KT 10/M07 A3036 RMK A01 T01011070  RH  030%=      5-min Rain = 0
KGU1 132158Z 15006KT 10/M07 A3036 RMK A01 T01021070  RH  029%=      5-min Rain = 0
KGU1 132159Z 14005KT 10/M07 A3036 RMK A01 T01011069  RH  030%=      5-min Rain = 0
KGU1 132200Z 13007KT 10/M07 A3036 RMK A01 T01021070  RH  030%=      5-min Rain = 0
KGU1 132201Z 17009KT 10/M07 A3036 RMK A01 T01021070  RH  030%=      5-min Rain = 0
KGU1 132202Z 18007KT 10/M07 A3036 RMK A01 T01011071  RH  029%=      5-min Rain = 0
KGU1 132203Z 17007KT 10/M07 A3036 RMK A01 T01021070  RH  030%=      5-min Rain = 0
KGU1 132204Z 17007KT 10/M07 A3036 RMK A01 T01031070  RH  029%=      5-min Rain = 0
KGU1 132205Z 19006KT 10/M07 A3036 RMK A01 T01041072  RH  029%=      5-min Rain = 0
KGU1 132206Z 19007KT 11/M07 A3036 RMK A01 T01051074  RH  028%=      5-min Rain = 0
KGU1 132207Z 20006KT 11/M07 A3036 RMK A01 T01051071  RH  029%=      5-min Rain = 0
KGU1 132208Z 20005KT 11/M07 A3036 RMK A01 T01061072  RH  028%=      5-min Rain = 0
KGU1 132209Z 20004KT 11/M07 A3036 RMK A01 T01071072  RH  028%=      5-min Rain = 0
KGU1 132210Z 21006KT 11/M07 A3036 RMK A01 T01081071  RH  028%=      5-min Rain = 0
KGU1 132211Z 20007KT 11/M07 A3036 RMK A01 T01081071  RH  028%=      5-min Rain = 0
KGU1 132212Z 18007KT 11/M07 A3036 RMK A01 T01081070  RH  028%=      5-min Rain = 0
KGU1 132213Z 18008KT 11/M07 A3035 RMK A01 T01081071  RH  028%=      5-min Rain = 0
KGU1 132214Z 18009KT 11/M07 A3035 RMK A01 T01081070  RH  028%=      5-min Rain = 0
KGU1 132215Z 19009KT 11/M07 A3035 RMK A01 T01071073  RH  028%=      5-min Rain = 0
KGU1 132216Z 20010KT 11/M07 A3035 RMK A01 T01061074  RH  028%=      5-min Rain = 0
KGU1 132217Z 19009KT 11/M07 A3035 RMK A01 T01061074  RH  028%=      5-min Rain = 0
KGU1 132218Z 20009KT 11/M08 A3035 RMK A01 T01061075  RH  028%=      5-min Rain = 0
KGU1 132219Z 20009KT 11/M07 A3035 RMK A01 T01051074  RH  028%=      5-min Rain = 0
KGU1 132220Z 20010KT 10/M08 A3035 RMK A01 T01041075  RH  028%=      5-min Rain = 0
KGU1 132221Z 19010KT 10/M08 A3035 RMK A01 T01031075  RH  028%=      5-min Rain = 0
KGU1 132222Z 20010KT 10/M07 A3035 RMK A01 T01031074  RH  028%=      5-min Rain = 0
KGU1 132223Z 19010KT 10/M07 A3035 RMK A01 T01041074  RH  028%=      5-min Rain = 0
KGU1 132224Z 20008KT 10/M07 A3035 RMK A01 T01041072  RH  029%=      5-min Rain = 0
KGU1 132225Z 19011KT 10/M08 A3035 RMK A01 T01041075  RH  028%=      5-min Rain = 0
KGU1 132226Z 19009KT 10/M08 A3035 RMK A01 T01041076  RH  028%=      5-min Rain = 0
KGU1 132227Z 19010KT 10/M08 A3034 RMK A01 T01041075  RH  028%=      5-min Rain = 0
KGU1 132228Z 19010KT 11/M07 A3034 RMK A01 T01051074  RH  028%=      5-min Rain = 0
KGU1 132229Z 19009KT 11/M08 A3034 RMK A01 T01051075  RH  028%=      5-min Rain = 0
KGU1 132230Z 19010KT 11/M07 A3034 RMK A01 T01051074  RH  028%=      5-min Rain = 0
KGU1 132231Z 20012KT 11/M08 A3034 RMK A01 T01051075  RH  028%=      5-min Rain = 0
KGU1 132232Z 20011KT 10/M08 A3034 RMK A01 T01041075  RH  028%=      5-min Rain = 0
KGU1 132233Z 20010KT 10/M07 A3034 RMK A01 T01031074  RH  028%=      5-min Rain = 0
KGU1 132234Z 20010KT 10/M07 A3034 RMK A01 T01041074  RH  028%=      5-min Rain = 0
KGU1 132235Z 20009KT 10/M07 A3034 RMK A01 T01041073  RH  028%=      5-min Rain = 0
KGU1 132236Z 20009KT 10/M07 A3034 RMK A01 T01041074  RH  028%=      5-min Rain = 0
KGU1 132237Z 19009KT 10/M07 A3034 RMK A01 T01041074  RH  028%=      5-min Rain = 0
KGU1 132238Z 20009KT 10/M07 A3034 RMK A01 T01041074  RH  028%=      5-min Rain = 0
KGU1 132239Z 20010KT 10/M07 A3034 RMK A01 T01041074  RH  028%=      5-min Rain = 0
KGU1 132240Z 20009KT 10/M07 A3034 RMK A01 T01041073  RH  028%=      5-min Rain = 0
KGU1 132241Z 20009KT 10/M07 A3034 RMK A01 T01041074  RH  028%=      5-min Rain = 0
KGU1 132242Z 19009KT 10/M07 A3034 RMK A01 T01041074  RH  028%=      5-min Rain = 0
KGU1 132243Z 20012KT 10/M08 A3034 RMK A01 T01041076  RH  028%=      5-min Rain = 0
KGU1 132244Z 20010KT 10/M08 A3034 RMK A01 T01031077  RH  028%=      5-min Rain = 0
KGU1 132245Z 19010KT 10/M08 A3034 RMK A01 T01021076  RH  028%=      5-min Rain = 0
KGU1 132246Z 19011KT 10/M08 A3034 RMK A01 T01021077  RH  028%=      5-min Rain = 0
KGU1 132247Z 19010KT 10/M08 A3034 RMK A01 T01011075  RH  028%=      5-min Rain = 0
KGU1 132248Z 19010KT 10/M08 A3034 RMK A01 T01021075  RH  028%=      5-min Rain = 0
KGU1 132249Z 19011KT 10/M08 A3034 RMK A01 T01021076  RH  028%=      5-min Rain = 0
KGU1 132250Z 19011KT 10/M08 A3034 RMK A01 T01021075  RH  028%=      5-min Rain = 0
KGU1 132251Z 19011KT 10/M08 A3034 RMK A01 T01021075  RH  028%=      5-min Rain = 0
KGU1 132252Z 19013KT 10/M08 A3034 RMK A01 T01011078  RH  028%=      5-min Rain = 0
KGU1 132253Z 20012KT 10/M08 A3034 RMK A01 T01011077  RH  028%=      5-min Rain = 0
KGU1 132254Z 20010KT 10/M08 A3034 RMK A01 T01011075  RH  028%=      5-min Rain = 0
KGU1 132255Z 20008KT 10/M08 A3034 RMK A01 T01021075  RH  028%=      5-min Rain = 0
KGU1 132256Z 20008KT 10/M08 A3034 RMK A01 T01021075  RH  028%=      5-min Rain = 0
KGU1 132257Z 18009KT 10/M08 A3034 RMK A01 T01021076  RH  028%=      5-min Rain = 0
KGU1 132258Z 19008KT 10/M07 A3034 RMK A01 T01031074  RH  028%=      5-min Rain = 0
KGU1 132259Z 18007KT 10/M07 A3034 RMK A01 T01031074  RH  028%=      5-min Rain = 0
KGU1 132300Z 19006KT 10/M07 A3034 RMK A01 T01031074  RH  029%=      5-min Rain = 0
KGU1 132301Z 19007KT 10/M07 A3034 RMK A01 T01041073  RH  028%=      5-min Rain = 0
KGU1 132302Z 20011KT 10/M08 A3034 RMK A01 T01041075  RH  028%=      5-min Rain = 0
KGU1 132303Z 19012KT 10/M08 A3034 RMK A01 T01021076  RH  028%=      5-min Rain = 0
KGU1 132304Z 20010KT 10/M08 A3034 RMK A01 T01021075  RH  028%=      5-min Rain = 0
KGU1 132305Z 20009KT 10/M08 A3034 RMK A01 T01011076  RH  028%=      5-min Rain = 0
KGU1 132306Z 21010KT 10/M08 A3034 RMK A01 T01011076  RH  028%=      5-min Rain = 0
KGU1 132307Z 20010KT 10/M08 A3034 RMK A01 T01011076  RH  028%=      5-min Rain = 0
KGU1 132308Z 19012KT 10/M08 A3033 RMK A01 T01011076  RH  028%=      5-min Rain = 0
KGU1 132309Z 20010KT 10/M07 A3033 RMK A01 T01011074  RH  029%=      5-min Rain = 0
KGU1 132310Z 20011KT 10/M07 A3033 RMK A01 T01011074  RH  029%=      5-min Rain = 0
KGU1 132311Z 20009KT 10/M07 A3033 RMK A01 T01001074  RH  029%=      5-min Rain = 0
KGU1 132312Z 19009KT 10/M07 A3033 RMK A01 T01001074  RH  029%=      5-min Rain = 0
KGU1 132313Z 19011KT 10/M08 A3033 RMK A01 T01001075  RH  029%=      5-min Rain = 0
KGU1 132314Z 20009KT 10/M07 A3033 RMK A01 T00991074  RH  029%=      5-min Rain = 0
KGU1 132315Z 21010KT 10/M07 A3033 RMK A01 T00991073  RH  029%=      5-min Rain = 0
KGU1 132316Z 21010KT 10/M07 A3033 RMK A01 T00991074  RH  029%=      5-min Rain = 0
KGU1 132317Z 20013KT 10/M08 A3033 RMK A01 T00991075  RH  029%=      5-min Rain = 0
KGU1 132318Z 20011KT 10/M08 A3033 RMK A01 T00981075  RH  029%=      5-min Rain = 0
KGU1 132319Z 20011KT 10/M08 A3033 RMK A01 T00981075  RH  029%=      5-min Rain = 0
KGU1 132320Z 20010KT 10/M07 A3033 RMK A01 T00981074  RH  029%=      5-min Rain = 0
KGU1 132321Z 21011KT 10/M07 A3033 RMK A01 T00981074  RH  029%=      5-min Rain = 0
KGU1 132322Z 21010KT 10/M08 A3033 RMK A01 T00981075  RH  029%=      5-min Rain = 0
KGU1 132323Z 21011KT 10/M08 A3033 RMK A01 T00981076  RH  029%=      5-min Rain = 0
KGU1 132324Z 22013G18KT 10/M08 A3033 RMK A01 T00991081  RH  028%=      5-min Rain = 0
KGU1 132325Z 22013KT 10/M08 A3033 RMK A01 T00991080  RH  028%=      5-min Rain = 0
KGU1 132326Z 21013KT 10/M08 A3032 RMK A01 T00991078  RH  028%=      5-min Rain = 0
KGU1 132327Z 21012KT 10/M08 A3032 RMK A01 T00991078  RH  028%=      5-min Rain = 0
KGU1 132328Z 21010KT 10/M08 A3032 RMK A01 T00981079  RH  028%=      5-min Rain = 0
KGU1 132329Z 21012KT 10/M08 A3032 RMK A01 T00981080  RH  028%=      5-min Rain = 0
KGU1 132330Z 22012KT 10/M08 A3032 RMK A01 T00981082  RH  027%=      5-min Rain = 0
KGU1 132331Z 21010KT 10/M08 A3032 RMK A01 T00981081  RH  028%=      5-min Rain = 0
KGU1 132332Z 22010KT 10/M08 A3032 RMK A01 T00981081  RH  028%=      5-min Rain = 0
KGU1 132333Z 22010KT 10/M08 A3032 RMK A01 T00981080  RH  028%=      5-min Rain = 0
KGU1 132334Z 22013KT 10/M09 A3032 RMK A01 T00991086  RH  027%=      5-min Rain = 0
KGU1 132335Z 22009G15KT 10/M09 A3032 RMK A01 T00991087  RH  026%=      5-min Rain = 0
KGU1 132336Z 24010G15KT 10/M09 A3032 RMK A01 T00991085  RH  027%=      5-min Rain = 0
KGU1 132337Z 23009G15KT 10/M09 A3032 RMK A01 T00991086  RH  026%=      5-min Rain = 0
KGU1 132338Z 22009KT 10/M08 A3032 RMK A01 T00991082  RH  027%=      5-min Rain = 0
KGU1 132339Z 22009KT 10/M08 A3032 RMK A01 T00991080  RH  028%=      5-min Rain = 0
KGU1 132340Z 23009KT 10/M08 A3032 RMK A01 T00981081  RH  028%=      5-min Rain = 0
KGU1 132341Z 23010G15KT 10/M09 A3032 RMK A01 T00971085  RH  027%=      5-min Rain = 0
KGU1 132342Z 22010KT 10/M08 A3032 RMK A01 T00981083  RH  027%=      5-min Rain = 0
KGU1 132343Z 22011KT 10/M08 A3032 RMK A01 T00971080  RH  028%=      5-min Rain = 0
KGU1 132344Z 23009KT 10/M08 A3032 RMK A01 T00961082  RH  028%=      5-min Rain = 0
KGU1 132345Z 22008KT 10/M08 A3032 RMK A01 T00951080  RH  028%=      5-min Rain = 0
KGU1 132346Z 21009KT 10/M08 A3032 RMK A01 T00951079  RH  029%=      5-min Rain = 0
KGU1 132347Z 22012KT 09/M08 A3032 RMK A01 T00941080  RH  029%=      5-min Rain = 0
KGU1 132348Z 22010KT 09/M08 A3032 RMK A01 T00931078  RH  029%=      5-min Rain = 0
KGU1 132349Z 22009KT 09/M08 A3032 RMK A01 T00921079  RH  029%=      5-min Rain = 0
KGU1 132350Z 22007KT 09/M08 A3032 RMK A01 T00921078  RH  030%=      5-min Rain = 0
KGU1 132351Z 22009KT 09/M08 A3032 RMK A01 T00911079  RH  030%=      5-min Rain = 0
KGU1 132352Z 21010KT 09/M08 A3032 RMK A01 T00911081  RH  029%=      5-min Rain = 0
KGU1 132353Z 22011KT 09/M08 A3032 RMK A01 T00901080  RH  029%=      5-min Rain = 0
KGU1 132354Z 24011KT 09/M09 A3032 RMK A01 T00901091  RH  027%=      5-min Rain = 0
KGU1 132355Z 22009KT 09/M08 A3032 RMK A01 T00921084  RH  028%=      5-min Rain = 0
KGU1 132356Z 22011KT 09/M08 A3032 RMK A01 T00911082  RH  029%=      5-min Rain = 0
KGU1 132357Z 22008KT 09/M09 A3032 RMK A01 T00901085  RH  028%=      5-min Rain = 0
KGU1 132358Z 22010KT 09/M09 A3032 RMK A01 T00911087  RH  028%=      5-min Rain = 0
KGU1 132359Z 21012KT 09/M09 A3032 RMK A01 T00911086  RH  028%=      5-min Rain = 0
KGU1 140000Z 22011KT 09/M09 A3032 RMK A01 T00921090  RH  027%=      5-min Rain = 0
KGU1 140001Z 23010KT 09/M09 A3032 RMK A01 T00931088  RH  027%=      5-min Rain = 0
KGU1 140002Z 21010KT 09/M08 A3032 RMK A01 T00931082  RH  029%=      5-min Rain = 0
KGU1 140003Z 21010KT 09/M08 A3032 RMK A01 T00911079  RH  030%=      5-min Rain = 0
KGU1 140004Z 22011KT 09/M08 A3032 RMK A01 T00891082  RH  029%=      5-min Rain = 0
KGU1 140005Z 24008KT 09/M09 A3032 RMK A01 T00891090  RH  027%=      5-min Rain = 0
KGU1 140006Z 23006KT 09/M09 A3032 RMK A01 T00911089  RH  028%=      5-min Rain = 0
KGU1 140007Z 22005KT 09/M08 A3032 RMK A01 T00901083  RH  029%=      5-min Rain = 0
KGU1 140008Z 23006KT 09/M08 A3033 RMK A01 T00891080  RH  030%=      5-min Rain = 0
KGU1 140009Z 23007KT 09/M08 A3032 RMK A01 T00871079  RH  030%=      5-min Rain = 0
KGU1 140010Z 22006KT 09/M08 A3033 RMK A01 T00861080  RH  030%=      5-min Rain = 0
KGU1 140011Z 23007KT 09/M08 A3033 RMK A01 T00861082  RH  030%=      5-min Rain = 0
KGU1 140012Z 23010KT 09/M09 A3033 RMK A01 T00861085  RH  029%=      5-min Rain = 0
KGU1 140013Z 23008KT 09/M09 A3033 RMK A01 T00871087  RH  028%=      5-min Rain = 0
KGU1 140014Z 23005KT 09/M08 A3033 RMK A01 T00881081  RH  030%=      5-min Rain = 0
KGU1 140015Z 24006KT 09/M08 A3033 RMK A01 T00871082  RH  030%=      5-min Rain = 0
KGU1 140016Z 22005KT 09/M08 A3033 RMK A01 T00861082  RH  030%=      5-min Rain = 0
KGU1 140017Z 22005KT 09/M08 A3033 RMK A01 T00861083  RH  030%=      5-min Rain = 0
KGU1 140018Z 22008KT 09/M09 A3033 RMK A01 T00861089  RH  028%=      5-min Rain = 0
KGU1 140019Z 22006KT 09/M09 A3033 RMK A01 T00881092  RH  027%=      5-min Rain = 0
KGU1 140020Z 24008KT 09/M09 A3033 RMK A01 T00901091  RH  027%=      5-min Rain = 0
KGU1 140021Z 21006KT 09/M08 A3033 RMK A01 T00911084  RH  029%=      5-min Rain = 0
KGU1 140022Z 21006KT 09/M08 A3033 RMK A01 T00881080  RH  030%=      5-min Rain = 0
KGU1 140023Z 26005KT 09/M08 A3033 RMK A01 T00861080  RH  030%=      5-min Rain = 0
KGU1 140024Z 33004KT 08/M08 A3033 RMK A01 T00811081  RH  031%=      5-min Rain = 0
KGU1 140025Z 33003KT 08/M08 A3033 RMK A01 T00771081  RH  032%=      5-min Rain = 0
KGU1 140026Z 32004KT 08/M08 A3033 RMK A01 T00751082  RH  032%=      5-min Rain = 0
KGU1 140027Z 35002KT 07/M08 A3033 RMK A01 T00731080  RH  033%=      5-min Rain = 0
KGU1 140028Z 01003KT 07/M08 A3033 RMK A01 T00711081  RH  034%=      5-min Rain = 0
KGU1 140029Z 02000KT 07/M08 A3033 RMK A01 T00691080  RH  034%=      5-min Rain = 0
KGU1 140030Z 03002KT 07/M08 A3033 RMK A01 T00681080  RH  034%=      5-min Rain = 0
KGU1 140031Z 03003KT 07/M08 A3033 RMK A01 T00661080  RH  035%=      5-min Rain = 0
KGU1 140032Z 04001KT 07/M08 A3033 RMK A01 T00651081  RH  035%=      5-min Rain = 0
KGU1 140033Z 03000KT 06/M08 A3033 RMK A01 T00641080  RH  035%=      5-min Rain = 0
KGU1 140034Z 33000KT 06/M08 A3033 RMK A01 T00631081  RH  035%=      5-min Rain = 0
KGU1 140035Z 33001KT 06/M08 A3033 RMK A01 T00631081  RH  035%=      5-min Rain = 0
KGU1 140036Z 33000KT 06/M08 A3033 RMK A01 T00631081  RH  035%=      5-min Rain = 0
KGU1 140037Z 25001KT 06/M08 A3033 RMK A01 T00621081  RH  036%=      5-min Rain = 0
KGU1 140038Z 25002KT 06/M08 A3033 RMK A01 T00621080  RH  036%=      5-min Rain = 0
KGU1 140039Z 24004KT 06/M08 A3033 RMK A01 T00631080  RH  036%=      5-min Rain = 0
KGU1 140040Z 21006KT 07/M08 A3033 RMK A01 T00651081  RH  035%=      5-min Rain = 0
KGU1 140041Z 22005KT 07/M08 A3033 RMK A01 T00671081  RH  034%=      5-min Rain = 0
KGU1 140042Z 26002KT 07/M08 A3033 RMK A01 T00681081  RH  034%=      5-min Rain = 0
KGU1 140043Z 01002KT 07/M08 A3033 RMK A01 T00671082  RH  034%=      5-min Rain = 0
KGU1 140044Z 26001KT 07/M08 A3033 RMK A01 T00661081  RH  034%=      5-min Rain = 0
KGU1 140045Z 22005KT 07/M08 A3033 RMK A01 T00651079  RH  035%=      5-min Rain = 0
KGU1 140046Z 20008KT 07/M08 A3033 RMK A01 T00651078  RH  036%=      5-min Rain = 0
KGU1 140047Z 20007KT 07/M08 A3033 RMK A01 T00661079  RH  035%=      5-min Rain = 0
KGU1 140048Z 20009KT 07/M08 A3033 RMK A01 T00671081  RH  034%=      5-min Rain = 0
KGU1 140049Z 20008KT 07/M08 A3033 RMK A01 T00691081  RH  034%=      5-min Rain = 0
KGU1 140050Z 21010KT 07/M08 A3033 RMK A01 T00701080  RH  034%=      5-min Rain = 0
KGU1 140051Z 20009KT 07/M08 A3033 RMK A01 T00701080  RH  034%=      5-min Rain = 0
KGU1 140052Z 21006KT 07/M08 A3033 RMK A01 T00701079  RH  034%=      5-min Rain = 0
KGU1 140053Z 20007KT 07/M08 A3033 RMK A01 T00691079  RH  034%=      5-min Rain = 0
KGU1 140054Z 20009KT 07/M08 A3033 RMK A01 T00681079  RH  034%=      5-min Rain = 0
KGU1 140055Z 19010KT 07/M08 A3033 RMK A01 T00681079  RH  035%=      5-min Rain = 0
KGU1 140056Z 20009KT 07/M08 A3033 RMK A01 T00691080  RH  034%=      5-min Rain = 0
KGU1 140057Z 20008G13KT 07/M08 A3033 RMK A01 T00691080  RH  034%=      5-min Rain = 0
KGU1 140058Z 20008KT 07/M08 A3033 RMK A01 T00691080  RH  034%=      5-min Rain = 0
KGU1 140059Z 20007KT 07/M08 A3033 RMK A01 T00691080  RH  034%=      5-min Rain = 0
KGU1 140100Z 20009KT 07/M08 A3033 RMK A01 T00691080  RH  034%=      5-min Rain = 0
KGU1 140101Z 21008KT 07/M08 A3033 RMK A01 T00691080  RH  034%=      5-min Rain = 0
KGU1 140102Z 22007KT 07/M08 A3033 RMK A01 T00701081  RH  034%=      5-min Rain = 0
KGU1 140103Z 20006KT 07/M08 A3033 RMK A01 T00691080  RH  034%=      5-min Rain = 0
KGU1 140104Z 21004KT 07/M08 A3033 RMK A01 T00691081  RH  034%=      5-min Rain = 0
KGU1 140105Z 20007KT 07/M08 A3033 RMK A01 T00691081  RH  034%=      5-min Rain = 0
KGU1 140106Z 19008KT 07/M08 A3033 RMK A01 T00691080  RH  034%=      5-min Rain = 0
KGU1 140107Z 19010KT 07/M08 A3033 RMK A01 T00681080  RH  034%=      5-min Rain = 0
KGU1 140108Z 19010KT 07/M08 A3033 RMK A01 T00681079  RH  034%=      5-min Rain = 0
KGU1 140109Z 19010KT 07/M08 A3033 RMK A01 T00681080  RH  034%=      5-min Rain = 0
KGU1 140110Z 20009KT 07/M08 A3033 RMK A01 T00691080  RH  034%=      5-min Rain = 0
KGU1 140111Z 20010KT 07/M08 A3033 RMK A01 T00681080  RH  034%=      5-min Rain = 0
KGU1 140112Z 19010KT 07/M08 A3033 RMK A01 T00691081  RH  034%=      5-min Rain = 0
KGU1 140113Z 19011KT 07/M08 A3033 RMK A01 T00691080  RH  034%=      5-min Rain = 0
KGU1 140114Z 19009KT 07/M08 A3033 RMK A01 T00691080  RH  034%=      5-min Rain = 0
KGU1 140115Z 20008KT 07/M08 A3033 RMK A01 T00681079  RH  035%=      5-min Rain = 0
KGU1 140116Z 21007KT 07/M08 A3033 RMK A01 T00671079  RH  035%=      5-min Rain = 0
KGU1 140117Z 21007KT 07/M08 A3033 RMK A01 T00661079  RH  035%=      5-min Rain = 0
KGU1 140118Z 20007KT 07/M08 A3033 RMK A01 T00651079  RH  035%=      5-min Rain = 0
KGU1 140119Z 20009KT 06/M08 A3033 RMK A01 T00641078  RH  036%=      5-min Rain = 0
KGU1 140120Z 20010KT 07/M08 A3033 RMK A01 T00651081  RH  035%=      5-min Rain = 0
KGU1 140121Z 20009KT 07/M08 A3033 RMK A01 T00671080  RH  035%=      5-min Rain = 0
KGU1 140122Z 19008KT 07/M08 A3033 RMK A01 T00661080  RH  035%=      5-min Rain = 0
KGU1 140123Z 19009KT 07/M08 A3033 RMK A01 T00661081  RH  035%=      5-min Rain = 0
KGU1 140124Z 20010KT 07/M08 A3033 RMK A01 T00681081  RH  034%=      5-min Rain = 0
KGU1 140125Z 20009KT 07/M08 A3033 RMK A01 T00671081  RH  034%=      5-min Rain = 0
KGU1 140126Z 20008KT 07/M08 A3033 RMK A01 T00671080  RH  035%=      5-min Rain = 0
KGU1 140127Z 19009KT 07/M08 A3033 RMK A01 T00661080  RH  035%=      5-min Rain = 0
KGU1 140128Z 20009KT 07/M08 A3033 RMK A01 T00661083  RH  034%=      5-min Rain = 0
KGU1 140129Z 20006KT 07/M08 A3033 RMK A01 T00701083  RH  033%=      5-min Rain = 0
KGU1 140130Z 18008KT 07/M08 A3033 RMK A01 T00711082  RH  033%=      5-min Rain = 0
KGU1 140131Z 18008KT 07/M08 A3033 RMK A01 T00691081  RH  034%=      5-min Rain = 0
KGU1 140132Z 21005KT 07/M08 A3033 RMK A01 T00681081  RH  034%=      5-min Rain = 0
KGU1 140133Z 22005KT 07/M08 A3033 RMK A01 T00691082  RH  034%=      5-min Rain = 0
KGU1 140134Z 19005KT 07/M08 A3033 RMK A01 T00691081  RH  034%=      5-min Rain = 0
KGU1 140135Z 18008KT 07/M08 A3033 RMK A01 T00681081  RH  034%=      5-min Rain = 0
KGU1 140136Z 17008KT 07/M08 A3032 RMK A01 T00671082  RH  034%=      5-min Rain = 0
KGU1 140137Z 22006KT 07/M08 A3033 RMK A01 T00681081  RH  034%=      5-min Rain = 0
KGU1 140138Z 23005KT 07/M08 A3033 RMK A01 T00671083  RH  034%=      5-min Rain = 0
KGU1 140139Z 21005KT 07/M08 A3033 RMK A01 T00691082  RH  034%=      5-min Rain = 0
KGU1 140140Z 24006KT 07/M08 A3033 RMK A01 T00691083  RH  033%=      5-min Rain = 0
KGU1 140141Z 22005KT 07/M08 A3033 RMK A01 T00711083  RH  033%=      5-min Rain = 0
KGU1 140142Z 21006KT 07/M08 A3033 RMK A01 T00731082  RH  033%=      5-min Rain = 0
KGU1 140143Z 21006KT 07/M08 A3033 RMK A01 T00731081  RH  033%=      5-min Rain = 0
KGU1 140144Z 24005KT 07/M08 A3032 RMK A01 T00731083  RH  032%=      5-min Rain = 0
KGU1 140145Z 23009KT 08/M08 A3032 RMK A01 T00761083  RH  032%=      5-min Rain = 0
KGU1 140146Z 22006KT 08/M08 A3032 RMK A01 T00791083  RH  031%=      5-min Rain = 0
KGU1 140147Z 24008G13KT 08/M09 A3032 RMK A01 T00831086  RH  030%=      5-min Rain = 0
KGU1 140148Z 26008KT 09/M09 A3032 RMK A01 T00881086  RH  029%=      5-min Rain = 0
KGU1 140149Z 24008KT 09/M09 A3032 RMK A01 T00901085  RH  028%=      5-min Rain = 0
KGU1 140150Z 24010KT 09/M09 A3032 RMK A01 T00921085  RH  028%=      5-min Rain = 0
KGU1 140151Z 25012KT 10/M09 A3032 RMK A01 T00951085  RH  027%=      5-min Rain = 0
KGU1 140152Z 26009KT 10/M09 A3032 RMK A01 T00961085  RH  027%=      5-min Rain = 0
KGU1 140153Z 24008KT 10/M09 A3032 RMK A01 T00971085  RH  027%=      5-min Rain = 0
KGU1 140154Z 25007KT 10/M08 A3032 RMK A01 T00971083  RH  027%=      5-min Rain = 0
KGU1 140155Z 24007KT 10/M08 A3032 RMK A01 T00961083  RH  028%=      5-min Rain = 0
KGU1 140156Z 25006KT 10/M08 A3032 RMK A01 T00961084  RH  027%=      5-min Rain = 0
KGU1 140157Z 25004KT 10/M08 A3032 RMK A01 T00961084  RH  028%=      5-min Rain = 0
KGU1 140158Z 26005KT 10/M09 A3032 RMK A01 T00951085  RH  028%=      5-min Rain = 0
KGU1 140159Z 26007KT 10/M09 A3032 RMK A01 T00951085  RH  027%=      5-min Rain = 0
KGU1 140200Z 25007KT 10/M09 A3032 RMK A01 T00951085  RH  028%=      5-min Rain = 0
KGU1 140201Z 25007KT 10/M09 A3032 RMK A01 T00951086  RH  027%=      5-min Rain = 0
KGU1 140202Z 26006KT 10/M09 A3032 RMK A01 T00951085  RH  027%=      5-min Rain = 0
KGU1 140203Z 28006KT 10/M09 A3032 RMK A01 T00951085  RH  027%=      5-min Rain = 0
KGU1 140204Z 26005KT 10/M08 A3032 RMK A01 T00951084  RH  028%=      5-min Rain = 0
KGU1 140205Z 26009G15KT 09/M09 A3032 RMK A01 T00941086  RH  027%=      5-min Rain = 0
KGU1 140206Z 23013KT 10/M09 A3032 RMK A01 T00971087  RH  027%=      5-min Rain = 0
KGU1 140207Z 25010KT 10/M09 A3032 RMK A01 T00981086  RH  027%=      5-min Rain = 0
KGU1 140208Z 24008KT 10/M09 A3032 RMK A01 T01001087  RH  026%=      5-min Rain = 0
KGU1 140209Z 23007KT 10/M09 A3032 RMK A01 T01011087  RH  026%=      5-min Rain = 0
KGU1 140210Z 25007KT 10/M09 A3032 RMK A01 T01011087  RH  026%=      5-min Rain = 0
KGU1 140211Z 25010KT 10/M09 A3032 RMK A01 T01011087  RH  026%=      5-min Rain = 0
KGU1 140212Z 25008KT 10/M09 A3032 RMK A01 T01011086  RH  026%=      5-min Rain = 0
KGU1 140213Z 25010KT 10/M09 A3032 RMK A01 T01011087  RH  026%=      5-min Rain = 0
KGU1 140214Z 26008KT 10/M09 A3032 RMK A01 T01021087  RH  026%=      5-min Rain = 0
KGU1 140215Z 23008KT 10/M09 A3032 RMK A01 T01021087  RH  026%=      5-min Rain = 0
KGU1 140216Z 21008KT 10/M08 A3032 RMK A01 T01011083  RH  027%=      5-min Rain = 0
KGU1 140217Z 24008G14KT 10/M09 A3032 RMK A01 T00971085  RH  027%=      5-min Rain = 0
KGU1 140218Z 20006KT 10/M08 A3032 RMK A01 T00961083  RH  028%=      5-min Rain = 0
KGU1 140219Z 22006KT 09/M08 A3032 RMK A01 T00931083  RH  028%=      5-min Rain = 0
KGU1 140220Z 24007KT 09/M09 A3032 RMK A01 T00911085  RH  028%=      5-min Rain = 0
KGU1 140221Z 26008KT 09/M09 A3032 RMK A01 T00921087  RH  028%=      5-min Rain = 0
KGU1 140222Z 22008KT 09/M09 A3032 RMK A01 T00941086  RH  028%=      5-min Rain = 0
KGU1 140223Z 21008KT 09/M08 A3032 RMK A01 T00941083  RH  028%=      5-min Rain = 0
KGU1 140224Z 21006G11KT 09/M08 A3032 RMK A01 T00911082  RH  029%=      5-min Rain = 0
KGU1 140225Z 22005KT 09/M08 A3032 RMK A01 T00881081  RH  030%=      5-min Rain = 0
KGU1 140226Z 24003KT 09/M08 A3032 RMK A01 T00861084  RH  030%=      5-min Rain = 0
KGU1 140227Z 26005KT 09/M09 A3032 RMK A01 T00861087  RH  029%=      5-min Rain = 0
KGU1 140228Z 25005KT 09/M09 A3032 RMK A01 T00881088  RH  028%=      5-min Rain = 0
KGU1 140229Z 27007KT 09/M09 A3032 RMK A01 T00911088  RH  028%=      5-min Rain = 0
KGU1 140230Z 28009KT 09/M09 A3032 RMK A01 T00931086  RH  028%=      5-min Rain = 0
KGU1 140231Z 28006KT 09/M09 A3032 RMK A01 T00931086  RH  028%=      5-min Rain = 0
KGU1 140232Z 25007KT 09/M09 A3032 RMK A01 T00941087  RH  027%=      5-min Rain = 0
KGU1 140233Z 25006KT 10/M09 A3032 RMK A01 T00951087  RH  027%=      5-min Rain = 0
KGU1 140234Z 25006KT 10/M09 A3032 RMK A01 T00961088  RH  027%=      5-min Rain = 0
KGU1 140235Z 24004KT 10/M09 A3032 RMK A01 T00961088  RH  027%=      5-min Rain = 0
KGU1 140236Z 22005KT 10/M09 A3032 RMK A01 T00961088  RH  027%=      5-min Rain = 0
KGU1 140237Z 19005KT 10/M09 A3032 RMK A01 T00961088  RH  027%=      5-min Rain = 0
KGU1 140238Z 21005KT 10/M09 A3032 RMK A01 T00971088  RH  026%=      5-min Rain = 0
KGU1 140239Z 23005KT 10/M09 A3032 RMK A01 T00971088  RH  027%=      5-min Rain = 0
KGU1 140240Z 24006KT 10/M09 A3033 RMK A01 T00961087  RH  027%=      5-min Rain = 0
KGU1 140241Z 25006KT 10/M09 A3032 RMK A01 T00951088  RH  027%=      5-min Rain = 0
KGU1 140242Z 22004KT 10/M09 A3032 RMK A01 T00971090  RH  026%=      5-min Rain = 0
KGU1 140243Z 23005KT 10/M09 A3033 RMK A01 T00971088  RH  027%=      5-min Rain = 0
KGU1 140244Z 24006KT 10/M09 A3033 RMK A01 T00961088  RH  027%=      5-min Rain = 0
KGU1 140245Z 21005KT 09/M09 A3032 RMK A01 T00941085  RH  028%=      5-min Rain = 0
KGU1 140246Z 17006KT 09/M09 A3032 RMK A01 T00911085  RH  028%=      5-min Rain = 0
KGU1 140247Z 19006KT 09/M08 A3032 RMK A01 T00891084  RH  029%=      5-min Rain = 0
KGU1 140248Z 20005KT 09/M08 A3032 RMK A01 T00871084  RH  029%=      5-min Rain = 0
KGU1 140249Z 20005KT 09/M09 A3032 RMK A01 T00861087  RH  029%=      5-min Rain = 0
KGU1 140250Z 19006KT 09/M09 A3032 RMK A01 T00871089  RH  028%=      5-min Rain = 0
KGU1 140251Z 21005KT 09/M09 A3032 RMK A01 T00891091  RH  027%=      5-min Rain = 0
KGU1 140252Z 20004KT 09/M09 A3032 RMK A01 T00921089  RH  027%=      5-min Rain = 0
KGU1 140253Z 22005KT 09/M09 A3032 RMK A01 T00931089  RH  027%=      5-min Rain = 0
KGU1 140254Z 21007KT 09/M09 A3032 RMK A01 T00931089  RH  027%=      5-min Rain = 0
KGU1 140255Z 22006KT 09/M09 A3032 RMK A01 T00941089  RH  027%=      5-min Rain = 0
KGU1 140256Z 21007KT 09/M09 A3032 RMK A01 T00941089  RH  027%=      5-min Rain = 0
KGU1 140257Z 20005KT 09/M09 A3032 RMK A01 T00941090  RH  027%=      5-min Rain = 0
KGU1 140258Z 21005KT 09/M09 A3032 RMK A01 T00941088  RH  027%=      5-min Rain = 0
KGU1 140259Z 22005KT 09/M09 A3032 RMK A01 T00931088  RH  027%=      5-min Rain = 0
KGU1 140300Z 24002KT 09/M09 A3032 RMK A01 T00921089  RH  027%=      5-min Rain = 0
KGU1 140301Z 22004KT 09/M09 A3032 RMK A01 T00911089  RH  027%=      5-min Rain = 0
KGU1 140302Z 23004KT 09/M09 A3032 RMK A01 T00911088  RH  028%=      5-min Rain = 0
KGU1 140303Z 21003KT 09/M09 A3032 RMK A01 T00901088  RH  028%=      5-min Rain = 0
KGU1 140304Z 17003KT 09/M09 A3032 RMK A01 T00901090  RH  027%=      5-min Rain = 0
KGU1 140305Z 19004KT 09/M09 A3032 RMK A01 T00901090  RH  027%=      5-min Rain = 0
KGU1 140306Z 22004KT 09/M09 A3032 RMK A01 T00911090  RH  027%=      5-min Rain = 0
KGU1 140307Z 19002KT 09/M09 A3032 RMK A01 T00911090  RH  027%=      5-min Rain = 0
KGU1 140308Z 21006KT 09/M09 A3032 RMK A01 T00921088  RH  027%=      5-min Rain = 0
KGU1 140309Z 21005KT 09/M09 A3032 RMK A01 T00911088  RH  028%=      5-min Rain = 0
KGU1 140310Z 20005KT 09/M09 A3032 RMK A01 T00911087  RH  028%=      5-min Rain = 0
KGU1 140311Z 18004KT 09/M09 A3032 RMK A01 T00901088  RH  028%=      5-min Rain = 0
KGU1 140312Z 19004KT 09/M09 A3032 RMK A01 T00901088  RH  028%=      5-min Rain = 0
KGU1 140313Z 19004KT 09/M09 A3032 RMK A01 T00891089  RH  028%=      5-min Rain = 0
KGU1 140314Z 16006KT 09/M08 A3032 RMK A01 T00881084  RH  029%=      5-min Rain = 0
KGU1 140315Z 16006KT 08/M08 A3032 RMK A01 T00841084  RH  030%=      5-min Rain = 0
KGU1 140316Z 18008KT 08/M09 A3032 RMK A01 T00821087  RH  030%=      5-min Rain = 0
KGU1 140317Z 18008KT 08/M09 A3032 RMK A01 T00811088  RH  029%=      5-min Rain = 0
KGU1 140318Z 18004KT 08/M09 A3032 RMK A01 T00831090  RH  029%=      5-min Rain = 0
KGU1 140319Z 17007KT 08/M09 A3032 RMK A01 T00841087  RH  029%=      5-min Rain = 0
KGU1 140320Z 17009KT 08/M09 A3032 RMK A01 T00831085  RH  030%=      5-min Rain = 0
KGU1 140321Z 18007KT 08/M09 A3032 RMK A01 T00801086  RH  030%=      5-min Rain = 0
KGU1 140322Z 18008KT 08/M09 A3032 RMK A01 T00781085  RH  031%=      5-min Rain = 0
KGU1 140323Z 17009KT 08/M08 A3032 RMK A01 T00761084  RH  032%=      5-min Rain = 0
KGU1 140324Z 18009KT 07/M08 A3032 RMK A01 T00731083  RH  032%=      5-min Rain = 0
KGU1 140325Z 18008KT 07/M08 A3032 RMK A01 T00711083  RH  033%=      5-min Rain = 0
KGU1 140326Z 18008KT 07/M08 A3032 RMK A01 T00701084  RH  033%=      5-min Rain = 0
KGU1 140327Z 18008KT 07/M09 A3032 RMK A01 T00711086  RH  032%=      5-min Rain = 0
KGU1 140328Z 18007KT 07/M08 A3032 RMK A01 T00721083  RH  033%=      5-min Rain = 0
KGU1 140329Z 16010KT 07/M08 A3032 RMK A01 T00701083  RH  033%=      5-min Rain = 0
KGU1 140330Z 18009KT 07/M08 A3032 RMK A01 T00701084  RH  033%=      5-min Rain = 0
KGU1 140331Z 18010KT 07/M08 A3032 RMK A01 T00691084  RH  033%=      5-min Rain = 0
KGU1 140332Z 19010KT 07/M08 A3032 RMK A01 T00681082  RH  034%=      5-min Rain = 0
KGU1 140333Z 19010KT 07/M08 A3032 RMK A01 T00681083  RH  034%=      5-min Rain = 0
KGU1 140334Z 19008KT 07/M08 A3032 RMK A01 T00681084  RH  033%=      5-min Rain = 0
KGU1 140335Z 19007KT 07/M08 A3032 RMK A01 T00681084  RH  033%=      5-min Rain = 0
KGU1 140336Z 19004KT 07/M08 A3032 RMK A01 T00671084  RH  034%=      5-min Rain = 0
KGU1 140337Z 19007G14KT 07/M08 A3032 RMK A01 T00671083  RH  034%=      5-min Rain = 0
KGU1 140338Z 18010KT 07/M09 A3032 RMK A01 T00681086  RH  033%=      5-min Rain = 0
KGU1 140339Z 18007KT 07/M09 A3032 RMK A01 T00711085  RH  032%=      5-min Rain = 0
KGU1 140340Z 19007KT 07/M08 A3032 RMK A01 T00711084  RH  033%=      5-min Rain = 0
KGU1 140341Z 20008KT 07/M08 A3032 RMK A01 T00701084  RH  033%=      5-min Rain = 0
KGU1 140342Z 20008KT 07/M08 A3032 RMK A01 T00701083  RH  033%=      5-min Rain = 0
KGU1 140343Z 22007KT 07/M08 A3032 RMK A01 T00691083  RH  033%=      5-min Rain = 0
KGU1 140344Z 22007KT 07/M08 A3032 RMK A01 T00681083  RH  034%=      5-min Rain = 0
KGU1 140345Z 21006KT 07/M08 A3032 RMK A01 T00671083  RH  034%=      5-min Rain = 0
KGU1 140346Z 21006KT 07/M08 A3032 RMK A01 T00671083  RH  034%=      5-min Rain = 0
KGU1 140347Z 21006KT 07/M09 A3032 RMK A01 T00661085  RH  033%=      5-min Rain = 0
KGU1 140348Z 20004KT 07/M09 A3032 RMK A01 T00671085  RH  033%=      5-min Rain = 0
KGU1 140349Z 21003KT 07/M08 A3032 RMK A01 T00671084  RH  033%=      5-min Rain = 0
KGU1 140350Z 20006KT 07/M09 A3032 RMK A01 T00681087  RH  033%=      5-min Rain = 0
KGU1 140351Z 19009KT 07/M09 A3032 RMK A01 T00701086  RH  032%=      5-min Rain = 0
KGU1 140352Z 18008KT 07/M08 A3032 RMK A01 T00701082  RH  033%=      5-min Rain = 0
KGU1 140353Z 19007KT 07/M08 A3032 RMK A01 T00681081  RH  034%=      5-min Rain = 0
KGU1 140354Z 18008KT 07/M08 A3032 RMK A01 T00671081  RH  034%=      5-min Rain = 0
KGU1 140355Z 27006KT 07/M08 A3032 RMK A01 T00661083  RH  034%=      5-min Rain = 0
KGU1 140356Z 30003KT 07/M09 A3032 RMK A01 T00661085  RH  033%=      5-min Rain = 0
KGU1 140357Z 18005KT 07/M09 A3032 RMK A01 T00671085  RH  033%=      5-min Rain = 0
KGU1 140358Z 18009KT 07/M09 A3032 RMK A01 T00671085  RH  033%=      5-min Rain = 0
KGU1 140359Z 17012KT 07/M09 A3032 RMK A01 T00691086  RH  033%=      5-min Rain = 0
KGU1 140400Z 18007KT 07/M08 A3032 RMK A01 T00701082  RH  033%=      5-min Rain = 0
KGU1 140401Z 18007KT 07/M08 A3032 RMK A01 T00691081  RH  034%=      5-min Rain = 0
KGU1 140402Z 17008KT 07/M08 A3032 RMK A01 T00671081  RH  034%=      5-min Rain = 0
KGU1 140403Z 17008KT 07/M09 A3032 RMK A01 T00671085  RH  033%=      5-min Rain = 0
KGU1 140404Z 19006KT 07/M09 A3032 RMK A01 T00691087  RH  032%=      5-min Rain = 0
KGU1 140405Z 19008KT 07/M08 A3032 RMK A01 T00701084  RH  033%=      5-min Rain = 0
KGU1 140406Z 19008KT 07/M08 A3032 RMK A01 T00691083  RH  033%=      5-min Rain = 0
KGU1 140407Z 19007KT 07/M08 A3032 RMK A01 T00681084  RH  033%=      5-min Rain = 0
KGU1 140408Z 20005KT 07/M08 A3032 RMK A01 T00691083  RH  033%=      5-min Rain = 0
KGU1 140409Z 19006KT 07/M09 A3032 RMK A01 T00681086  RH  033%=      5-min Rain = 0
KGU1 140410Z 18008KT 07/M09 A3032 RMK A01 T00701085  RH  033%=      5-min Rain = 0
KGU1 140411Z 17008KT 07/M09 A3032 RMK A01 T00711085  RH  032%=      5-min Rain = 0
KGU1 140412Z 17006KT 07/M09 A3032 RMK A01 T00721086  RH  032%=      5-min Rain = 0
KGU1 140413Z 21006KT 07/M09 A3033 RMK A01 T00731089  RH  031%=      5-min Rain = 0
KGU1 140414Z 17007KT 07/M09 A3032 RMK A01 T00741088  RH  031%=      5-min Rain = 0
KGU1 140415Z 18008KT 07/M09 A3032 RMK A01 T00741087  RH  031%=      5-min Rain = 0
KGU1 140416Z 18007KT 07/M09 A3032 RMK A01 T00741087  RH  031%=      5-min Rain = 0
KGU1 140417Z 16009KT 07/M09 A3032 RMK A01 T00741086  RH  031%=      5-min Rain = 0
KGU1 140418Z 17009KT 07/M09 A3032 RMK A01 T00741086  RH  031%=      5-min Rain = 0
KGU1 140419Z 18008KT 07/M09 A3032 RMK A01 T00741085  RH  032%=      5-min Rain = 0
KGU1 140420Z 19005KT 07/M09 A3032 RMK A01 T00731088  RH  031%=      5-min Rain = 0
KGU1 140421Z 20008KT 07/M09 A3032 RMK A01 T00741090  RH  030%=      5-min Rain = 0
KGU1 140422Z 17009KT 07/M09 A3032 RMK A01 T00741085  RH  032%=      5-min Rain = 0
KGU1 140423Z 18006KT 07/M09 A3032 RMK A01 T00721085  RH  032%=      5-min Rain = 0
KGU1 140424Z 19009KT 07/M08 A3032 RMK A01 T00701084  RH  033%=      5-min Rain = 0
KGU1 140425Z 18010KT 07/M09 A3032 RMK A01 T00681085  RH  033%=      5-min Rain = 0
KGU1 140426Z 19009KT 07/M09 A3032 RMK A01 T00671086  RH  033%=      5-min Rain = 0
KGU1 140427Z 20005KT 07/M09 A3032 RMK A01 T00681086  RH  033%=      5-min Rain = 0
KGU1 140428Z 17007KT 07/M09 A3032 RMK A01 T00671086  RH  033%=      5-min Rain = 0
KGU1 140429Z 17008KT 07/M09 A3032 RMK A01 T00681088  RH  032%=      5-min Rain = 0
KGU1 140430Z 17007KT 07/M10 A3032 RMK A01 T00721096  RH  030%=      5-min Rain = 0
KGU1 140431Z 20005KT 08/M10 A3032 RMK A01 T00781095  RH  029%=      5-min Rain = 0
KGU1 140432Z 21006KT 08/M09 A3032 RMK A01 T00821094  RH  028%=      5-min Rain = 0
KGU1 140433Z 19009KT 08/M09 A3032 RMK A01 T00801086  RH  030%=      5-min Rain = 0
KGU1 140434Z 19008KT 08/M08 A3032 RMK A01 T00751084  RH  032%=      5-min Rain = 0
KGU1 140435Z 19008KT 07/M08 A3032 RMK A01 T00711084  RH  033%=      5-min Rain = 0
KGU1 140436Z 19007KT 07/M08 A3032 RMK A01 T00671084  RH  033%=      5-min Rain = 0
KGU1 140437Z 18006KT 07/M09 A3032 RMK A01 T00661086  RH  033%=      5-min Rain = 0
KGU1 140438Z 20008KT 06/M09 A3032 RMK A01 T00641085  RH  034%=      5-min Rain = 0
KGU1 140439Z 19008KT 06/M09 A3032 RMK A01 T00641086  RH  034%=      5-min Rain = 0
KGU1 140440Z 20010KT 06/M09 A3032 RMK A01 T00631085  RH  034%=      5-min Rain = 0
KGU1 140441Z 20007KT 06/M09 A3032 RMK A01 T00621086  RH  034%=      5-min Rain = 0
KGU1 140442Z 18008KT 06/M09 A3032 RMK A01 T00621087  RH  034%=      5-min Rain = 0
KGU1 140443Z 19006KT 06/M09 A3032 RMK A01 T00631087  RH  034%=      5-min Rain = 0
KGU1 140444Z 22006KT 06/M09 A3032 RMK A01 T00631089  RH  033%=      5-min Rain = 0
KGU1 140445Z 20006KT 06/M09 A3032 RMK A01 T00641089  RH  033%=      5-min Rain = 0
KGU1 140446Z 20008KT 06/M09 A3032 RMK A01 T00641087  RH  033%=      5-min Rain = 0
KGU1 140447Z 21009KT 06/M09 A3032 RMK A01 T00631086  RH  034%=      5-min Rain = 0
KGU1 140448Z 20009KT 06/M09 A3032 RMK A01 T00631089  RH  033%=      5-min Rain = 0
KGU1 140449Z 21008KT 06/M09 A3032 RMK A01 T00641087  RH  034%=      5-min Rain = 0
KGU1 140450Z 21005KT 06/M09 A3032 RMK A01 T00621086  RH  034%=      5-min Rain = 0
KGU1 140451Z 20005KT 06/M09 A3032 RMK A01 T00601085  RH  035%=      5-min Rain = 0
KGU1 140452Z 22007KT 06/M08 A3032 RMK A01 T00581084  RH  036%=      5-min Rain = 0
KGU1 140453Z 19007KT 06/M08 A3032 RMK A01 T00561083  RH  036%=      5-min Rain = 0
KGU1 140454Z 23007KT 06/M08 A3032 RMK A01 T00551084  RH  036%=      5-min Rain = 0
KGU1 140455Z 22007KT 06/M09 A3032 RMK A01 T00551086  RH  036%=      5-min Rain = 0
KGU1 140456Z 23006KT 06/M09 A3032 RMK A01 T00561087  RH  035%=      5-min Rain = 0
KGU1 140457Z 26008KT 06/M09 A3032 RMK A01 T00581087  RH  035%=      5-min Rain = 0
KGU1 140458Z 23008KT 06/M09 A3032 RMK A01 T00581086  RH  035%=      5-min Rain = 0
KGU1 140459Z 21007KT 06/M09 A3032 RMK A01 T00581087  RH  035%=      5-min Rain = 0
KGU1 140500Z 25005KT 06/M09 A3032 RMK A01 T00581088  RH  034%=      5-min Rain = 0
KGU1 140501Z 27009KT 06/M09 A3032 RMK A01 T00581087  RH  035%=      5-min Rain = 0
KGU1 140502Z 22009KT 06/M09 A3032 RMK A01 T00591089  RH  034%=      5-min Rain = 0
KGU1 140503Z 19009KT 06/M09 A3032 RMK A01 T00601087  RH  034%=      5-min Rain = 0
KGU1 140504Z 22005KT 06/M09 A3032 RMK A01 T00591085  RH  035%=      5-min Rain = 0
KGU1 140505Z 22006KT 06/M09 A3032 RMK A01 T00571086  RH  035%=      5-min Rain = 0
KGU1 140506Z 19007KT 06/M09 A3032 RMK A01 T00581092  RH  034%=      5-min Rain = 0
KGU1 140507Z 23005KT 06/M09 A3032 RMK A01 T00611091  RH  033%=      5-min Rain = 0
KGU1 140508Z 20009KT 06/M09 A3032 RMK A01 T00631089  RH  033%=      5-min Rain = 0
KGU1 140509Z 19008KT 06/M09 A3031 RMK A01 T00621088  RH  034%=      5-min Rain = 0
KGU1 140510Z 21006KT 06/M09 A3031 RMK A01 T00601088  RH  034%=      5-min Rain = 0
KGU1 140511Z 24009KT 06/M09 A3032 RMK A01 T00601088  RH  034%=      5-min Rain = 0
KGU1 140512Z 19009KT 06/M09 A3031 RMK A01 T00591088  RH  034%=      5-min Rain = 0
KGU1 140513Z 19006KT 06/M09 A3031 RMK A01 T00591088  RH  034%=      5-min Rain = 0
KGU1 140514Z 21005KT 06/M09 A3032 RMK A01 T00581088  RH  035%=      5-min Rain = 0
KGU1 140515Z 23005KT 06/M09 A3031 RMK A01 T00571087  RH  035%=      5-min Rain = 0
KGU1 140516Z 24009G14KT 06/M09 A3031 RMK A01 T00561087  RH  035%=      5-min Rain = 0
KGU1 140517Z 17009G14KT 06/M10 A3031 RMK A01 T00601096  RH  032%=      5-min Rain = 0
KGU1 140518Z 20007KT 07/M09 A3031 RMK A01 T00671093  RH  031%=      5-min Rain = 0
KGU1 140519Z 21008KT 07/M09 A3031 RMK A01 T00681092  RH  031%=      5-min Rain = 0
KGU1 140520Z 20007KT 07/M09 A3031 RMK A01 T00671091  RH  032%=      5-min Rain = 0
KGU1 140521Z 20005KT 07/M09 A3031 RMK A01 T00681094  RH  031%=      5-min Rain = 0
KGU1 140522Z 21007KT 07/M09 A3031 RMK A01 T00691094  RH  031%=      5-min Rain = 0
KGU1 140523Z 18007KT 07/M09 A3031 RMK A01 T00711094  RH  030%=      5-min Rain = 0
KGU1 140524Z 20003KT 07/M09 A3031 RMK A01 T00721092  RH  031%=      5-min Rain = 0
KGU1 140525Z 20007G12KT 07/M09 A3031 RMK A01 T00701091  RH  031%=      5-min Rain = 0
KGU1 140526Z 27005G12KT 07/M10 A3031 RMK A01 T00681100  RH  029%=      5-min Rain = 0
KGU1 140527Z 21007G12KT 08/M10 A303 RMK A01 T00751101  RH  028%=      5-min Rain = 0
KGU1 140528Z 23008KT 07/M09 A3031 RMK A01 T00721089  RH  031%=      5-min Rain = 0
KGU1 140529Z 18006KT 07/M09 A3031 RMK A01 T00681091  RH  031%=      5-min Rain = 0
KGU1 140530Z 17005KT 07/M09 A3031 RMK A01 T00681094  RH  031%=      5-min Rain = 0
KGU1 140531Z 19007KT 07/M10 A3031 RMK A01 T00681097  RH  030%=      5-min Rain = 0
KGU1 140532Z 18007KT 07/M09 A3031 RMK A01 T00681094  RH  031%=      5-min Rain = 0
KGU1 140533Z 19006KT 07/M10 A3031 RMK A01 T00681095  RH  031%=      5-min Rain = 0
KGU1 140534Z 21009G14KT 07/M10 A3031 RMK A01 T00661098  RH  030%=      5-min Rain = 0
KGU1 140535Z 16006KT 07/M10 A3031 RMK A01 T00681099  RH  029%=      5-min Rain = 0
KGU1 140536Z 21004KT 07/M11 A3031 RMK A01 T00691105  RH  028%=      5-min Rain = 0
KGU1 140537Z 20004KT 07/M11 A3031 RMK A01 T00731107  RH  027%=      5-min Rain = 0
KGU1 140538Z 33002KT 08/M12 A3031 RMK A01 T00751115  RH  025%=      5-min Rain = 0
KGU1 140539Z 25002KT 08/M11 A3031 RMK A01 T00771110  RH  026%=      5-min Rain = 0
KGU1 140540Z 19003KT 08/M10 A3031 RMK A01 T00781103  RH  027%=      5-min Rain = 0
KGU1 140541Z 10003KT 08/M10 A3031 RMK A01 T00771098  RH  028%=      5-min Rain = 0
KGU1 140542Z 08003KT 08/M10 A3031 RMK A01 T00761101  RH  028%=      5-min Rain = 0
KGU1 140543Z 06003KT 08/M10 A3031 RMK A01 T00751095  RH  029%=      5-min Rain = 0
KGU1 140544Z 36002KT 08/M10 A3031 RMK A01 T00751099  RH  028%=      5-min Rain = 0
KGU1 140545Z 14001KT 08/M10 A3031 RMK A01 T00751100  RH  028%=      5-min Rain = 0
KGU1 140546Z 23005KT 08/M10 A3031 RMK A01 T00761104  RH  027%=      5-min Rain = 0
KGU1 140547Z 30006KT 08/M11 A3031 RMK A01 T00811109  RH  025%=      5-min Rain = 0
KGU1 140548Z 24005KT 09/M10 A3031 RMK A01 T00861104  RH  025%=      5-min Rain = 0
KGU1 140549Z 22007KT 09/M10 A3031 RMK A01 T00881100  RH  026%=      5-min Rain = 0
KGU1 140550Z 19007KT 09/M09 A3031 RMK A01 T00861094  RH  027%=      5-min Rain = 0
KGU1 140551Z 22004G9KT 08/M09 A3031 RMK A01 T00821094  RH  028%=      5-min Rain = 0
KGU1 140552Z 19007KT 08/M10 A3031 RMK A01 T00811096  RH  028%=      5-min Rain = 0
KGU1 140553Z 18003KT 08/M09 A3031 RMK A01 T00801093  RH  029%=      5-min Rain = 0
KGU1 140554Z 23006KT 08/M10 A3031 RMK A01 T00791096  RH  028%=      5-min Rain = 0
KGU1 140555Z 22005KT 08/M09 A3031 RMK A01 T00791093  RH  029%=      5-min Rain = 0
KGU1 140556Z 31003G10KT 08/M09 A3031 RMK A01 T00781094  RH  029%=      5-min Rain = 0
KGU1 140557Z 30006KT 08/M10 A3031 RMK A01 T00821099  RH  027%=      5-min Rain = 0
KGU1 140558Z 20005KT 09/M10 A3031 RMK A01 T00861096  RH  027%=      5-min Rain = 0
KGU1 140559Z 26003KT 08/M09 A3031 RMK A01 T00841093  RH  028%=      5-min Rain = 0

Page generated in 0.0942 seconds.